Time,TemperatureF,DewpointF,PressureIn,WindDirection,WindDirectionDegrees,WindSpeedMPH,WindSpeedGustMPH,Humidity,HourlyPrecipIn,Conditions,Clouds,dailyrainin,SoftwareType,DateUTC
2013-04-13 00:00:00,29.1,28.4,29.86,NW,306,1.0,2.0,97,0.00,,,0.00,Wunderground v.1.15,2013-04-13 04:00:00,
2013-04-13 00:03:00,29.0,28.3,29.86,NW,306,1.0,1.0,97,0.00,,,0.00,Wunderground v.1.15,2013-04-13 04:03:00,
2013-04-13 00:05:00,29.1,28.4,29.86,NW,306,0.0,1.0,97,0.00,,,0.00,Wunderground v.1.15,2013-04-13 04:05:00,
2013-04-13 00:07:00,29.0,28.3,29.86,NW,306,0.0,1.0,97,0.00,,,0.00,Wunderground v.1.15,2013-04-13 04:07:00,
2013-04-13 00:08:00,29.1,28.4,29.86,NW,306,0.0,1.0,97,0.00,,,0.00,Wunderground v.1.15,2013-04-13 04:08:00,
2013-04-13 00:09:00,29.1,28.4,29.86,NW,306,1.0,1.0,97,0.00,,,0.00,Wunderground v.1.15,2013-04-13 04:09:00,
2013-04-13 00:15:00,29.1,28.4,29.86,NW,306,0.0,2.0,97,0.00,,,0.00,Wunderground v.1.15,2013-04-13 04:15:00,
2013-04-13 00:16:00,29.1,28.4,29.86,NW,306,0.0,2.0,97,0.00,,,0.00,Wunderground v.1.15,2013-04-13 04:16:00,
2013-04-13 00:17:00,29.1,28.4,29.87,NW,306,0.0,2.0,97,0.00,,,0.00,Wunderground v.1.15,2013-04-13 04:17:00,
2013-04-13 00:22:00,29.1,28.4,29.86,NW,306,0.0,1.0,97,0.00,,,0.00,Wunderground v.1.15,2013-04-13 04:22:00,
2013-04-13 00:24:00,29.1,28.4,29.86,NW,306,0.0,1.0,97,0.00,,,0.00,Wunderground v.1.15,2013-04-13 04:24:00,
2013-04-13 00:27:00,29.0,28.3,29.86,NW,306,0.0,1.0,97,0.00,,,0.00,Wunderground v.1.15,2013-04-13 04:27:00,
2013-04-13 00:28:00,29.0,28.3,29.86,NW,306,0.0,1.0,97,0.00,,,0.00,Wunderground v.1.15,2013-04-13 04:28:00,
2013-04-13 00:30:00,29.0,28.3,29.86,NW,306,1.0,1.0,97,0.00,,,0.00,Wunderground v.1.15,2013-04-13 04:30:00,
2013-04-13 00:31:00,29.0,28.3,29.86,NW,306,0.0,1.0,97,0.00,,,0.00,Wunderground v.1.15,2013-04-13 04:31:00,
2013-04-13 00:33:00,29.0,28.3,29.86,NW,306,3.0,3.0,97,0.00,,,0.00,Wunderground v.1.15,2013-04-13 04:33:00,
2013-04-13 00:34:00,29.0,28.3,29.85,NW,306,1.0,3.0,97,0.00,,,0.00,Wunderground v.1.15,2013-04-13 04:34:00,
2013-04-13 00:35:00,29.0,28.3,29.85,NW,306,2.0,3.0,97,0.00,,,0.00,Wunderground v.1.15,2013-04-13 04:35:00,
2013-04-13 00:38:00,28.9,28.2,29.86,NW,306,2.0,3.0,97,0.00,,,0.00,Wunderground v.1.15,2013-04-13 04:38:00,
2013-04-13 00:40:00,28.9,28.2,29.86,NW,306,0.0,1.0,97,0.00,,,0.00,Wunderground v.1.15,2013-04-13 04:40:00,
2013-04-13 00:41:00,28.9,28.2,29.86,NW,306,2.0,2.0,97,0.00,,,0.00,Wunderground v.1.15,2013-04-13 04:41:00,
2013-04-13 00:43:00,28.9,28.2,29.86,NW,306,2.0,2.0,97,0.00,,,0.00,Wunderground v.1.15,2013-04-13 04:43:00,
2013-04-13 00:45:00,28.9,28.2,29.85,NW,306,2.0,2.0,97,0.00,,,0.00,Wunderground v.1.15,2013-04-13 04:45:00,
2013-04-13 00:46:00,28.9,28.2,29.85,NW,306,1.0,2.0,97,0.00,,,0.00,Wunderground v.1.15,2013-04-13 04:46:00,
2013-04-13 00:48:00,28.8,28.1,29.85,NW,306,2.0,2.0,97,0.00,,,0.00,Wunderground v.1.15,2013-04-13 04:48:00,
2013-04-13 00:50:00,28.8,28.1,29.85,NW,306,0.0,1.0,97,0.00,,,0.00,Wunderground v.1.15,2013-04-13 04:50:00,
2013-04-13 00:52:00,28.8,28.1,29.85,NW,306,0.0,1.0,97,0.00,,,0.00,Wunderground v.1.15,2013-04-13 04:52:00,
2013-04-13 00:53:00,28.8,28.1,29.86,NW,306,0.0,1.0,97,0.00,,,0.00,Wunderground v.1.15,2013-04-13 04:53:00,
2013-04-13 00:58:00,28.9,28.2,29.85,NW,306,1.0,1.0,97,0.00,,,0.00,Wunderground v.1.15,2013-04-13 04:58:00,
2013-04-13 00:59:00,28.8,28.1,29.85,NW,306,3.0,3.0,97,0.00,,,0.00,Wunderground v.1.15,2013-04-13 04:59:00,
2013-04-13 01:02:00,28.8,28.1,29.85,NW,306,0.0,1.0,97,0.00,,,0.00,Wunderground v.1.15,2013-04-13 05:02:00,
2013-04-13 01:03:00,28.8,28.1,29.85,NW,306,0.0,1.0,97,0.00,,,0.00,Wunderground v.1.15,2013-04-13 05:03:00,
2013-04-13 01:07:00,28.8,28.1,29.85,NW,306,4.0,4.0,97,0.00,,,0.00,Wunderground v.1.15,2013-04-13 05:07:00,
2013-04-13 01:09:00,28.8,28.1,29.84,NW,306,3.0,4.0,97,0.00,,,0.00,Wunderground v.1.15,2013-04-13 05:09:00,
2013-04-13 01:11:00,28.8,28.1,29.85,NW,306,0.0,1.0,97,0.00,,,0.00,Wunderground v.1.15,2013-04-13 05:11:00,
2013-04-13 01:13:00,28.8,28.1,29.86,NW,306,0.0,1.0,97,0.00,,,0.00,Wunderground v.1.15,2013-04-13 05:13:00,
2013-04-13 01:15:00,28.8,28.1,29.87,NW,306,0.0,1.0,97,0.00,,,0.00,Wunderground v.1.15,2013-04-13 05:15:00,
2013-04-13 01:16:00,28.7,28.0,29.88,NW,306,0.0,1.0,97,0.00,,,0.00,Wunderground v.1.15,2013-04-13 05:16:00,
2013-04-13 01:17:00,28.8,28.1,29.88,NW,306,2.0,2.0,97,0.00,,,0.00,Wunderground v.1.15,2013-04-13 05:17:00,
2013-04-13 01:21:00,28.8,28.1,29.88,NW,306,0.0,2.0,97,0.00,,,0.00,Wunderground v.1.15,2013-04-13 05:21:00,
2013-04-13 01:22:00,28.8,28.1,29.88,NW,306,0.0,2.0,97,0.00,,,0.00,Wunderground v.1.15,2013-04-13 05:22:00,
2013-04-13 01:26:00,28.8,28.1,29.89,NW,306,1.0,2.0,97,0.00,,,0.00,Wunderground v.1.15,2013-04-13 05:26:00,
2013-04-13 01:28:00,28.9,28.2,29.89,NW,306,0.0,2.0,97,0.00,,,0.00,Wunderground v.1.15,2013-04-13 05:28:00,
2013-04-13 01:32:00,28.8,28.1,29.87,NW,306,0.0,0.0,97,0.00,,,0.00,Wunderground v.1.15,2013-04-13 05:32:00,
2013-04-13 01:34:00,28.8,28.1,29.86,NW,306,0.0,0.0,97,0.00,,,0.00,Wunderground v.1.15,2013-04-13 05:34:00,
2013-04-13 01:37:00,28.8,28.1,29.87,NW,306,0.0,0.0,97,0.00,,,0.00,Wunderground v.1.15,2013-04-13 05:37:00,
2013-04-13 01:38:00,28.8,28.1,29.86,NW,306,0.0,0.0,97,0.00,,,0.00,Wunderground v.1.15,2013-04-13 05:38:00,
2013-04-13 01:39:00,28.8,28.1,29.85,NW,306,0.0,0.0,97,0.00,,,0.00,Wunderground v.1.15,2013-04-13 05:39:00,
2013-04-13 01:40:00,28.8,28.1,29.85,NW,306,3.0,3.0,97,0.00,,,0.00,Wunderground v.1.15,2013-04-13 05:40:00,
2013-04-13 01:45:00,28.8,28.1,29.84,NW,306,0.0,4.0,97,0.00,,,0.00,Wunderground v.1.15,2013-04-13 05:45:00,
2013-04-13 01:46:00,28.8,28.1,29.84,NW,306,0.0,4.0,97,0.00,,,0.00,Wunderground v.1.15,2013-04-13 05:46:00,
2013-04-13 01:48:00,28.8,28.1,29.85,NW,306,3.0,4.0,97,0.00,,,0.00,Wunderground v.1.15,2013-04-13 05:48:00,
2013-04-13 01:49:00,28.9,28.2,29.85,NW,306,2.0,4.0,97,0.00,,,0.00,Wunderground v.1.15,2013-04-13 05:49:00,
2013-04-13 01:51:00,28.9,28.2,29.85,NW,306,0.0,2.0,97,0.00,,,0.00,Wunderground v.1.15,2013-04-13 05:51:00,
2013-04-13 01:52:00,28.9,28.2,29.85,NW,306,0.0,2.0,97,0.00,,,0.00,Wunderground v.1.15,2013-04-13 05:52:00,
2013-04-13 01:57:00,28.9,28.2,29.85,NW,306,0.0,2.0,97,0.00,,,0.00,Wunderground v.1.15,2013-04-13 05:57:00,
2013-04-13 01:59:00,28.9,28.2,29.85,NW,306,0.0,2.0,97,0.00,,,0.00,Wunderground v.1.15,2013-04-13 05:59:00,
2013-04-13 02:00:00,28.9,28.2,29.85,NW,306,0.0,0.0,97,0.00,,,0.00,Wunderground v.1.15,2013-04-13 06:00:00,
2013-04-13 02:01:00,28.9,28.2,29.85,NW,306,0.0,0.0,97,0.00,,,0.00,Wunderground v.1.15,2013-04-13 06:01:00,
2013-04-13 02:02:00,28.9,28.2,29.86,NW,306,0.0,0.0,97,0.00,,,0.00,Wunderground v.1.15,2013-04-13 06:02:00,
2013-04-13 02:04:00,28.9,28.2,29.86,NW,306,0.0,0.0,97,0.00,,,0.00,Wunderground v.1.15,2013-04-13 06:04:00,
2013-04-13 02:05:00,28.8,28.1,29.85,NW,306,0.0,0.0,97,0.00,,,0.00,Wunderground v.1.15,2013-04-13 06:05:00,
2013-04-13 02:06:00,28.8,28.1,29.84,NW,306,0.0,0.0,97,0.00,,,0.00,Wunderground v.1.15,2013-04-13 06:06:00,
2013-04-13 02:07:00,28.8,28.1,29.84,NW,306,0.0,0.0,97,0.00,,,0.00,Wunderground v.1.15,2013-04-13 06:07:00,
2013-04-13 02:09:00,28.9,28.2,29.84,NW,306,0.0,0.0,97,0.00,,,0.00,Wunderground v.1.15,2013-04-13 06:09:00,
2013-04-13 02:11:00,28.8,28.1,29.85,NW,306,0.0,0.0,97,0.00,,,0.00,Wunderground v.1.15,2013-04-13 06:11:00,
2013-04-13 02:12:00,28.9,28.2,29.84,NW,306,0.0,0.0,97,0.00,,,0.00,Wunderground v.1.15,2013-04-13 06:12:00,
2013-04-13 02:14:00,28.9,28.2,29.85,NW,306,0.0,0.0,97,0.00,,,0.00,Wunderground v.1.15,2013-04-13 06:14:00,
2013-04-13 02:16:00,28.9,28.2,29.85,NW,306,0.0,0.0,97,0.00,,,0.00,Wunderground v.1.15,2013-04-13 06:16:00,
2013-04-13 02:17:00,28.9,28.2,29.85,NW,306,0.0,0.0,97,0.00,,,0.00,Wunderground v.1.15,2013-04-13 06:17:00,
2013-04-13 02:19:00,28.9,28.2,29.84,NW,306,0.0,1.0,97,0.00,,,0.00,Wunderground v.1.15,2013-04-13 06:19:00,
2013-04-13 02:21:00,28.9,28.2,29.85,NW,306,1.0,1.0,97,0.00,,,0.00,Wunderground v.1.15,2013-04-13 06:21:00,
2013-04-13 02:24:00,28.9,28.2,29.84,NW,306,0.0,2.0,97,0.00,,,0.00,Wunderground v.1.15,2013-04-13 06:24:00,
2013-04-13 02:26:00,28.8,28.1,29.84,NW,306,1.0,3.0,97,0.00,,,0.00,Wunderground v.1.15,2013-04-13 06:26:00,
2013-04-13 02:29:00,28.8,28.1,29.85,NW,306,0.0,3.0,97,0.00,,,0.00,Wunderground v.1.15,2013-04-13 06:29:00,
2013-04-13 02:31:00,28.8,28.1,29.85,NW,306,0.0,0.0,97,0.00,,,0.00,Wunderground v.1.15,2013-04-13 06:31:00,
2013-04-13 02:34:00,28.8,28.1,29.85,NW,306,0.0,0.0,97,0.00,,,0.00,Wunderground v.1.15,2013-04-13 06:34:00,
2013-04-13 02:38:00,28.8,28.1,29.84,NW,306,0.0,2.0,97,0.00,,,0.00,Wunderground v.1.15,2013-04-13 06:38:00,
2013-04-13 02:39:00,28.8,28.1,29.84,NW,306,0.0,2.0,97,0.00,,,0.00,Wunderground v.1.15,2013-04-13 06:39:00,
2013-04-13 02:43:00,28.8,28.1,29.84,NW,306,0.0,1.0,97,0.00,,,0.00,Wunderground v.1.15,2013-04-13 06:43:00,
2013-04-13 02:45:00,28.8,28.1,29.84,NW,306,0.0,1.0,97,0.00,,,0.00,Wunderground v.1.15,2013-04-13 06:45:00,
2013-04-13 02:49:00,28.8,28.1,29.84,NW,306,0.0,1.0,97,0.00,,,0.00,Wunderground v.1.15,2013-04-13 06:49:00,
2013-04-13 02:51:00,28.8,28.1,29.84,NW,306,0.0,0.0,97,0.00,,,0.00,Wunderground v.1.15,2013-04-13 06:51:00,
2013-04-13 02:54:00,28.8,28.1,29.83,NW,306,0.0,1.0,97,0.00,,,0.00,Wunderground v.1.15,2013-04-13 06:54:00,
2013-04-13 02:56:00,28.8,28.1,29.83,NW,306,0.0,1.0,97,0.00,,,0.00,Wunderground v.1.15,2013-04-13 06:56:00,
2013-04-13 02:59:00,28.8,28.1,29.83,NW,306,0.0,2.0,97,0.00,,,0.00,Wunderground v.1.15,2013-04-13 06:59:00,
2013-04-13 03:02:00,28.8,28.1,29.83,NW,306,0.0,1.0,97,0.00,,,0.00,Wunderground v.1.15,2013-04-13 07:02:00,
2013-04-13 03:04:00,28.8,28.1,29.83,NW,306,0.0,1.0,97,0.00,,,0.00,Wunderground v.1.15,2013-04-13 07:04:00,
2013-04-13 03:08:00,28.8,28.1,29.83,NW,306,0.0,1.0,97,0.00,,,0.00,Wunderground v.1.15,2013-04-13 07:08:00,
2013-04-13 03:10:00,28.8,28.1,29.83,NW,306,0.0,0.0,97,0.00,,,0.00,Wunderground v.1.15,2013-04-13 07:10:00,
2013-04-13 03:13:00,28.8,28.1,29.83,NW,306,0.0,0.0,97,0.00,,,0.00,Wunderground v.1.15,2013-04-13 07:13:00,
2013-04-13 03:15:00,28.8,28.1,29.83,NW,306,0.0,0.0,97,0.00,,,0.00,Wunderground v.1.15,2013-04-13 07:15:00,
2013-04-13 03:18:00,28.8,28.1,29.83,NW,306,0.0,0.0,97,0.00,,,0.00,Wunderground v.1.15,2013-04-13 07:18:00,
2013-04-13 03:20:00,28.8,28.1,29.83,NW,306,0.0,0.0,97,0.00,,,0.00,Wunderground v.1.15,2013-04-13 07:20:00,
2013-04-13 03:23:00,28.9,28.2,29.83,NW,306,0.0,0.0,97,0.00,,,0.00,Wunderground v.1.15,2013-04-13 07:23:00,
2013-04-13 03:25:00,28.9,28.2,29.83,NW,306,0.0,0.0,97,0.00,,,0.00,Wunderground v.1.15,2013-04-13 07:25:00,
2013-04-13 03:28:00,28.9,28.2,29.84,NW,306,0.0,0.0,97,0.00,,,0.00,Wunderground v.1.15,2013-04-13 07:28:00,
2013-04-13 03:30:00,28.9,28.2,29.83,NW,306,0.0,0.0,97,0.00,,,0.00,Wunderground v.1.15,2013-04-13 07:30:00,
2013-04-13 03:33:00,28.9,28.2,29.83,NW,306,0.0,0.0,97,0.00,,,0.00,Wunderground v.1.15,2013-04-13 07:33:00,
2013-04-13 03:37:00,28.9,28.2,29.83,NW,306,0.0,0.0,97,0.00,,,0.00,Wunderground v.1.15,2013-04-13 07:37:00,
2013-04-13 03:39:00,28.9,28.2,29.83,NW,306,0.0,0.0,97,0.00,,,0.00,Wunderground v.1.15,2013-04-13 07:39:00,
2013-04-13 03:43:00,28.9,28.2,29.83,NW,306,0.0,0.0,97,0.00,,,0.00,Wunderground v.1.15,2013-04-13 07:43:00,
2013-04-13 03:44:00,28.9,28.2,29.83,NW,306,0.0,0.0,97,0.00,,,0.00,Wunderground v.1.15,2013-04-13 07:44:00,
2013-04-13 03:48:00,29.0,28.3,29.83,NW,306,0.0,0.0,97,0.00,,,0.00,Wunderground v.1.15,2013-04-13 07:48:00,
2013-04-13 03:49:00,29.0,28.3,29.83,NW,306,0.0,0.0,97,0.00,,,0.00,Wunderground v.1.15,2013-04-13 07:49:00,
2013-04-13 03:53:00,28.9,28.2,29.83,NW,306,0.0,0.0,97,0.00,,,0.00,Wunderground v.1.15,2013-04-13 07:53:00,
2013-04-13 03:54:00,28.9,28.2,29.83,NW,306,0.0,0.0,97,0.00,,,0.00,Wunderground v.1.15,2013-04-13 07:54:00,
2013-04-13 03:58:00,28.9,28.2,29.83,NW,306,0.0,0.0,97,0.00,,,0.00,Wunderground v.1.15,2013-04-13 07:58:00,
2013-04-13 03:59:00,29.0,28.3,29.83,NW,306,0.0,0.0,97,0.00,,,0.00,Wunderground v.1.15,2013-04-13 07:59:00,
2013-04-13 04:03:00,29.0,28.3,29.83,NW,306,0.0,0.0,97,0.00,,,0.00,Wunderground v.1.15,2013-04-13 08:03:00,
2013-04-13 04:04:00,29.0,28.3,29.83,NW,306,0.0,0.0,97,0.00,,,0.00,Wunderground v.1.15,2013-04-13 08:04:00,
2013-04-13 04:09:00,29.0,28.3,29.83,NW,306,0.0,0.0,97,0.00,,,0.00,Wunderground v.1.15,2013-04-13 08:09:00,
2013-04-13 04:10:00,28.9,28.2,29.83,NW,306,0.0,0.0,97,0.00,,,0.00,Wunderground v.1.15,2013-04-13 08:10:00,
2013-04-13 04:14:00,29.0,28.3,29.83,NW,306,0.0,0.0,97,0.00,,,0.00,Wunderground v.1.15,2013-04-13 08:14:00,
2013-04-13 04:15:00,29.0,28.3,29.83,NW,306,0.0,0.0,97,0.00,,,0.00,Wunderground v.1.15,2013-04-13 08:15:00,
2013-04-13 04:19:00,29.0,28.3,29.83,NW,306,0.0,0.0,97,0.00,,,0.00,Wunderground v.1.15,2013-04-13 08:19:00,
2013-04-13 04:20:00,29.0,28.3,29.83,NW,306,0.0,0.0,97,0.00,,,0.00,Wunderground v.1.15,2013-04-13 08:20:00,
2013-04-13 04:24:00,29.0,28.3,29.83,NW,306,0.0,0.0,97,0.00,,,0.00,Wunderground v.1.15,2013-04-13 08:24:00,
2013-04-13 04:25:00,29.0,28.3,29.83,NW,306,0.0,0.0,97,0.00,,,0.00,Wunderground v.1.15,2013-04-13 08:25:00,
2013-04-13 04:30:00,29.0,28.3,29.83,NW,306,0.0,0.0,97,0.00,,,0.00,Wunderground v.1.15,2013-04-13 08:30:00,
2013-04-13 04:35:00,29.1,28.4,29.83,NW,306,0.0,0.0,97,0.00,,,0.00,Wunderground v.1.15,2013-04-13 08:35:00,
2013-04-13 04:40:00,29.1,28.4,29.82,NW,306,0.0,0.0,97,0.00,,,0.00,Wunderground v.1.15,2013-04-13 08:40:00,
2013-04-13 04:41:00,29.1,28.4,29.83,NW,306,0.0,0.0,97,0.00,,,0.00,Wunderground v.1.15,2013-04-13 08:41:00,
2013-04-13 04:45:00,29.2,28.5,29.83,NW,306,0.0,0.0,97,0.00,,,0.00,Wunderground v.1.15,2013-04-13 08:45:00,
2013-04-13 04:47:00,29.2,28.5,29.82,NW,306,0.0,0.0,97,0.00,,,0.00,Wunderground v.1.15,2013-04-13 08:47:00,
2013-04-13 04:51:00,29.2,28.5,29.82,NW,306,0.0,0.0,97,0.00,,,0.00,Wunderground v.1.15,2013-04-13 08:51:00,
2013-04-13 04:52:00,29.2,28.5,29.82,NW,306,0.0,0.0,97,0.00,,,0.00,Wunderground v.1.15,2013-04-13 08:52:00,
2013-04-13 04:56:00,29.1,28.4,29.82,NW,306,0.0,0.0,97,0.00,,,0.00,Wunderground v.1.15,2013-04-13 08:56:00,
2013-04-13 04:58:00,29.2,28.5,29.82,NW,306,0.0,0.0,97,0.00,,,0.00,Wunderground v.1.15,2013-04-13 08:58:00,
2013-04-13 05:01:00,29.1,28.4,29.82,NW,306,0.0,0.0,97,0.00,,,0.00,Wunderground v.1.15,2013-04-13 09:01:00,
2013-04-13 05:03:00,29.1,28.4,29.82,NW,306,0.0,0.0,97,0.00,,,0.00,Wunderground v.1.15,2013-04-13 09:03:00,
2013-04-13 05:06:00,29.0,28.3,29.82,NW,306,0.0,0.0,97,0.00,,,0.00,Wunderground v.1.15,2013-04-13 09:06:00,
2013-04-13 05:08:00,29.0,28.3,29.82,NW,306,0.0,0.0,97,0.00,,,0.00,Wunderground v.1.15,2013-04-13 09:08:00,
2013-04-13 05:11:00,29.0,28.3,29.82,NW,306,0.0,0.0,97,0.00,,,0.00,Wunderground v.1.15,2013-04-13 09:11:00,
2013-04-13 05:13:00,29.0,28.3,29.82,NW,306,0.0,0.0,97,0.00,,,0.00,Wunderground v.1.15,2013-04-13 09:13:00,
2013-04-13 05:17:00,29.0,28.3,29.82,NW,306,0.0,0.0,97,0.00,,,0.00,Wunderground v.1.15,2013-04-13 09:17:00,
2013-04-13 05:19:00,29.0,28.3,29.82,NW,306,0.0,0.0,97,0.00,,,0.00,Wunderground v.1.15,2013-04-13 09:19:00,
2013-04-13 05:23:00,29.0,28.3,29.82,NW,306,0.0,0.0,97,0.00,,,0.00,Wunderground v.1.15,2013-04-13 09:23:00,
2013-04-13 05:24:00,29.0,28.3,29.82,NW,306,0.0,0.0,97,0.00,,,0.00,Wunderground v.1.15,2013-04-13 09:24:00,
2013-04-13 05:28:00,29.0,28.3,29.82,NW,306,0.0,0.0,97,0.00,,,0.00,Wunderground v.1.15,2013-04-13 09:28:00,
2013-04-13 05:29:00,29.0,28.3,29.82,NW,306,0.0,0.0,97,0.00,,,0.00,Wunderground v.1.15,2013-04-13 09:29:00,
2013-04-13 05:34:00,29.0,28.3,29.82,NW,306,0.0,0.0,97,0.00,,,0.00,Wunderground v.1.15,2013-04-13 09:34:00,
2013-04-13 05:35:00,29.0,28.3,29.82,NW,306,0.0,0.0,97,0.00,,,0.00,Wunderground v.1.15,2013-04-13 09:35:00,
2013-04-13 05:40:00,29.0,28.3,29.82,NW,306,0.0,0.0,97,0.00,,,0.00,Wunderground v.1.15,2013-04-13 09:40:00,
2013-04-13 05:41:00,29.0,28.3,29.82,NW,306,0.0,0.0,97,0.00,,,0.00,Wunderground v.1.15,2013-04-13 09:41:00,
2013-04-13 05:45:00,29.0,28.3,29.82,NW,306,0.0,0.0,97,0.00,,,0.00,Wunderground v.1.15,2013-04-13 09:45:00,
2013-04-13 05:46:00,29.1,28.4,29.82,NW,306,0.0,0.0,97,0.00,,,0.00,Wunderground v.1.15,2013-04-13 09:46:00,
2013-04-13 05:50:00,29.1,28.4,29.82,NW,306,0.0,0.0,97,0.00,,,0.00,Wunderground v.1.15,2013-04-13 09:50:00,
2013-04-13 05:52:00,29.1,28.4,29.82,NW,306,0.0,0.0,97,0.00,,,0.00,Wunderground v.1.15,2013-04-13 09:52:00,
2013-04-13 05:55:00,29.1,28.6,29.82,NW,306,0.0,0.0,98,0.00,,,0.00,Wunderground v.1.15,2013-04-13 09:55:00,
2013-04-13 05:57:00,29.2,28.7,29.83,NW,306,0.0,0.0,98,0.00,,,0.00,Wunderground v.1.15,2013-04-13 09:57:00,
2013-04-13 06:02:00,29.2,28.5,29.83,NW,306,0.0,0.0,97,0.00,,,0.00,Wunderground v.1.15,2013-04-13 10:02:00,
2013-04-13 06:04:00,29.2,28.5,29.83,NW,306,0.0,0.0,97,0.00,,,0.00,Wunderground v.1.15,2013-04-13 10:04:00,
2013-04-13 06:08:00,29.2,28.7,29.83,NW,306,0.0,0.0,98,0.00,,,0.00,Wunderground v.1.15,2013-04-13 10:08:00,
2013-04-13 06:09:00,29.2,28.7,29.83,NW,306,0.0,0.0,98,0.00,,,0.00,Wunderground v.1.15,2013-04-13 10:09:00,
2013-04-13 06:14:00,29.3,28.8,29.84,NW,306,0.0,0.0,98,0.00,,,0.00,Wunderground v.1.15,2013-04-13 10:14:00,
2013-04-13 06:19:00,29.3,28.8,29.83,NW,306,0.0,0.0,98,0.00,,,0.00,Wunderground v.1.15,2013-04-13 10:19:00,
2013-04-13 06:20:00,29.3,28.8,29.83,NW,306,0.0,0.0,98,0.00,,,0.00,Wunderground v.1.15,2013-04-13 10:20:00,
2013-04-13 06:24:00,29.3,28.8,29.83,NW,306,0.0,0.0,98,0.00,,,0.00,Wunderground v.1.15,2013-04-13 10:24:00,
2013-04-13 06:25:00,29.3,28.8,29.83,NW,306,0.0,0.0,98,0.00,,,0.00,Wunderground v.1.15,2013-04-13 10:25:00,
2013-04-13 06:29:00,29.3,28.8,29.83,NW,306,0.0,0.0,98,0.00,,,0.00,Wunderground v.1.15,2013-04-13 10:29:00,
2013-04-13 06:30:00,29.3,28.8,29.83,NW,306,0.0,0.0,98,0.00,,,0.00,Wunderground v.1.15,2013-04-13 10:30:00,
2013-04-13 06:34:00,29.4,28.9,29.83,NW,306,0.0,0.0,98,0.00,,,0.00,Wunderground v.1.15,2013-04-13 10:34:00,
2013-04-13 06:35:00,29.4,28.9,29.83,NW,306,0.0,0.0,98,0.00,,,0.00,Wunderground v.1.15,2013-04-13 10:35:00,
2013-04-13 06:40:00,29.4,28.9,29.84,NW,306,0.0,0.0,98,0.00,,,0.00,Wunderground v.1.15,2013-04-13 10:40:00,
2013-04-13 06:45:00,29.4,28.9,29.84,NW,306,0.0,0.0,98,0.00,,,0.00,Wunderground v.1.15,2013-04-13 10:45:00,
2013-04-13 06:47:00,29.4,28.9,29.84,NW,306,0.0,0.0,98,0.00,,,0.00,Wunderground v.1.15,2013-04-13 10:47:00,
2013-04-13 06:51:00,29.5,29.0,29.84,NW,306,0.0,0.0,98,0.00,,,0.00,Wunderground v.1.15,2013-04-13 10:51:00,
2013-04-13 06:52:00,29.5,29.0,29.84,NW,306,0.0,0.0,98,0.00,,,0.00,Wunderground v.1.15,2013-04-13 10:52:00,
2013-04-13 06:57:00,29.5,29.0,29.84,NW,306,0.0,0.0,98,0.00,,,0.00,Wunderground v.1.15,2013-04-13 10:57:00,
2013-04-13 07:02:00,29.6,29.1,29.84,NW,306,0.0,0.0,98,0.00,,,0.00,Wunderground v.1.15,2013-04-13 11:02:00,
2013-04-13 07:07:00,29.6,29.1,29.84,NW,306,0.0,0.0,98,0.00,,,0.00,Wunderground v.1.15,2013-04-13 11:07:00,
2013-04-13 07:08:00,29.7,29.2,29.84,NW,306,0.0,0.0,98,0.00,,,0.00,Wunderground v.1.15,2013-04-13 11:08:00,
2013-04-13 07:12:00,29.7,29.2,29.84,NW,306,0.0,0.0,98,0.00,,,0.00,Wunderground v.1.15,2013-04-13 11:12:00,
2013-04-13 07:13:00,29.7,29.2,29.84,NW,306,0.0,0.0,98,0.00,,,0.00,Wunderground v.1.15,2013-04-13 11:13:00,
2013-04-13 07:17:00,29.8,29.3,29.84,NW,306,0.0,0.0,98,0.00,,,0.00,Wunderground v.1.15,2013-04-13 11:17:00,
2013-04-13 07:18:00,29.8,29.3,29.84,NW,306,0.0,0.0,98,0.00,,,0.00,Wunderground v.1.15,2013-04-13 11:18:00,
2013-04-13 07:23:00,29.8,29.3,29.84,NW,306,0.0,0.0,98,0.00,,,0.00,Wunderground v.1.15,2013-04-13 11:23:00,
2013-04-13 07:28:00,29.9,29.4,29.84,NW,306,0.0,0.0,98,0.00,,,0.00,Wunderground v.1.15,2013-04-13 11:28:00,
2013-04-13 07:33:00,30.0,29.5,29.84,NW,306,0.0,1.0,98,0.00,,,0.00,Wunderground v.1.15,2013-04-13 11:33:00,
2013-04-13 07:38:00,30.1,29.6,29.85,NW,306,0.0,1.0,98,0.00,,,0.00,Wunderground v.1.15,2013-04-13 11:38:00,
2013-04-13 07:43:00,30.2,29.7,29.85,NW,306,0.0,1.0,98,0.00,,,0.00,Wunderground v.1.15,2013-04-13 11:43:00,
2013-04-13 07:44:00,30.3,29.8,29.85,NW,306,0.0,1.0,98,0.00,,,0.00,Wunderground v.1.15,2013-04-13 11:44:00,
2013-04-13 07:48:00,30.3,29.8,29.85,NW,306,0.0,1.0,98,0.00,,,0.00,Wunderground v.1.15,2013-04-13 11:48:00,
2013-04-13 07:49:00,30.3,29.8,29.85,NW,306,0.0,1.0,98,0.00,,,0.00,Wunderground v.1.15,2013-04-13 11:49:00,
2013-04-13 07:53:00,30.3,29.8,29.85,NW,306,1.0,1.0,98,0.00,,,0.00,Wunderground v.1.15,2013-04-13 11:53:00,
2013-04-13 07:54:00,30.3,29.8,29.85,NW,306,0.0,1.0,98,0.00,,,0.00,Wunderground v.1.15,2013-04-13 11:54:00,
2013-04-13 07:58:00,30.3,29.8,29.84,NW,306,0.0,1.0,98,0.00,,,0.00,Wunderground v.1.15,2013-04-13 11:58:00,
2013-04-13 07:59:00,30.3,29.8,29.84,NW,306,0.0,1.0,98,0.00,,,0.00,Wunderground v.1.15,2013-04-13 11:59:00,
2013-04-13 08:03:00,30.4,29.9,29.85,NW,306,0.0,0.0,98,0.00,,,0.00,Wunderground v.1.15,2013-04-13 12:03:00,
2013-04-13 08:04:00,30.4,29.9,29.85,NW,306,0.0,0.0,98,0.00,,,0.00,Wunderground v.1.15,2013-04-13 12:04:00,
2013-04-13 08:08:00,30.4,29.9,29.85,NW,306,0.0,0.0,98,0.00,,,0.00,Wunderground v.1.15,2013-04-13 12:08:00,
2013-04-13 08:09:00,30.5,30.0,29.85,NW,306,0.0,0.0,98,0.00,,,0.00,Wunderground v.1.15,2013-04-13 12:09:00,
2013-04-13 08:13:00,30.5,30.0,29.85,NW,306,0.0,1.0,98,0.00,,,0.00,Wunderground v.1.15,2013-04-13 12:13:00,
2013-04-13 08:14:00,30.5,30.0,29.85,NW,306,0.0,1.0,98,0.00,,,0.00,Wunderground v.1.15,2013-04-13 12:14:00,
2013-04-13 08:19:00,30.7,30.2,29.85,NW,306,0.0,1.0,98,0.00,,,0.00,Wunderground v.1.15,2013-04-13 12:19:00,
2013-04-13 08:24:00,30.7,30.2,29.85,NW,306,0.0,0.0,98,0.00,,,0.00,Wunderground v.1.15,2013-04-13 12:24:00,
2013-04-13 08:29:00,30.9,30.4,29.85,NW,306,0.0,0.0,98,0.00,,,0.00,Wunderground v.1.15,2013-04-13 12:29:00,
2013-04-13 08:34:00,31.2,30.7,29.85,NW,306,0.0,1.0,98,0.00,,,0.00,Wunderground v.1.15,2013-04-13 12:34:00,
2013-04-13 08:35:00,31.2,30.7,29.85,NW,306,0.0,1.0,98,0.00,,,0.00,Wunderground v.1.15,2013-04-13 12:35:00,
2013-04-13 08:40:00,31.3,30.8,29.84,NW,306,0.0,1.0,98,0.00,,,0.00,Wunderground v.1.15,2013-04-13 12:40:00,
2013-04-13 08:46:00,31.4,30.9,29.85,NW,306,0.0,2.0,98,0.00,,,0.00,Wunderground v.1.15,2013-04-13 12:46:00,
2013-04-13 08:51:00,31.5,31.0,29.85,NW,306,0.0,0.0,98,0.00,,,0.00,Wunderground v.1.15,2013-04-13 12:51:00,
2013-04-13 08:52:00,31.6,31.1,29.85,NW,306,0.0,0.0,98,0.00,,,0.00,Wunderground v.1.15,2013-04-13 12:52:00,
2013-04-13 08:56:00,31.8,31.3,29.84,NW,306,0.0,0.0,98,0.00,,,0.00,Wunderground v.1.15,2013-04-13 12:56:00,
2013-04-13 08:57:00,31.9,31.4,29.84,NW,306,0.0,0.0,98,0.00,,,0.00,Wunderground v.1.15,2013-04-13 12:57:00,
2013-04-13 09:02:00,32.1,31.6,29.84,NW,306,0.0,0.0,98,0.00,,,0.00,Wunderground v.1.15,2013-04-13 13:02:00,
2013-04-13 09:07:00,32.2,31.7,29.84,NW,306,0.0,2.0,98,0.00,,,0.00,Wunderground v.1.15,2013-04-13 13:07:00,
2013-04-13 09:08:00,32.3,31.8,29.84,NW,306,0.0,2.0,98,0.00,,,0.00,Wunderground v.1.15,2013-04-13 13:08:00,
2013-04-13 09:13:00,32.3,31.8,29.84,NW,308,0.0,3.0,98,0.00,,,0.00,Wunderground v.1.15,2013-04-13 13:13:00,
2013-04-13 09:18:00,32.6,32.1,29.84,NW,308,0.0,3.0,98,0.00,,,0.00,Wunderground v.1.15,2013-04-13 13:18:00,
2013-04-13 09:19:00,32.7,32.2,29.84,NW,308,0.0,3.0,98,0.00,,,0.00,Wunderground v.1.15,2013-04-13 13:19:00,
2013-04-13 09:23:00,32.8,32.3,29.84,NW,309,0.0,1.0,98,0.00,,,0.00,Wunderground v.1.15,2013-04-13 13:23:00,
2013-04-13 09:24:00,32.8,32.3,29.85,West,266,2.0,2.0,98,0.00,,,0.00,Wunderground v.1.15,2013-04-13 13:24:00,
2013-04-13 09:28:00,32.9,32.1,29.84,West,266,0.0,2.0,97,0.00,,,0.00,Wunderground v.1.15,2013-04-13 13:28:00,
2013-04-13 09:31:00,33.0,32.2,29.84,West,266,0.0,0.0,97,0.00,,,0.00,Wunderground v.1.15,2013-04-13 13:31:00,
2013-04-13 09:33:00,33.1,32.3,29.84,West,266,0.0,0.0,97,0.00,,,0.00,Wunderground v.1.15,2013-04-13 13:33:00,
2013-04-13 09:36:00,33.2,32.7,29.85,West,266,0.0,0.0,98,0.00,,,0.00,Wunderground v.1.15,2013-04-13 13:36:00,
2013-04-13 09:40:00,33.3,32.5,29.85,West,266,0.0,0.0,97,0.00,,,0.00,Wunderground v.1.15,2013-04-13 13:40:00,
2013-04-13 09:41:00,33.3,32.5,29.84,West,266,0.0,0.0,97,0.00,,,0.00,Wunderground v.1.15,2013-04-13 13:41:00,
2013-04-13 09:45:00,33.3,32.5,29.84,West,266,0.0,1.0,97,0.00,,,0.00,Wunderground v.1.15,2013-04-13 13:45:00,
2013-04-13 09:47:00,33.3,32.5,29.85,West,266,0.0,1.0,97,0.00,,,0.00,Wunderground v.1.15,2013-04-13 13:47:00,
2013-04-13 09:50:00,33.4,32.6,29.84,West,266,0.0,0.0,97,0.00,,,0.00,Wunderground v.1.15,2013-04-13 13:50:00,
2013-04-13 09:52:00,33.3,32.5,29.84,West,269,0.0,0.0,97,0.00,,,0.00,Wunderground v.1.15,2013-04-13 13:52:00,
2013-04-13 09:55:00,33.4,32.6,29.84,West,269,0.0,0.0,97,0.00,,,0.00,Wunderground v.1.15,2013-04-13 13:55:00,
2013-04-13 09:57:00,33.5,32.7,29.84,West,269,0.0,0.0,97,0.00,,,0.00,Wunderground v.1.15,2013-04-13 13:57:00,
2013-04-13 10:00:00,33.6,32.8,29.84,West,269,0.0,0.0,97,0.00,,,0.00,Wunderground v.1.15,2013-04-13 14:00:00,
2013-04-13 10:03:00,33.7,32.9,29.84,West,269,0.0,0.0,97,0.00,,,0.00,Wunderground v.1.15,2013-04-13 14:03:00,
2013-04-13 10:05:00,33.8,33.0,29.84,NW,306,0.0,1.0,97,0.00,,,0.00,Wunderground v.1.15,2013-04-13 14:05:00,
2013-04-13 10:08:00,33.9,33.1,29.85,NNW,340,2.0,3.0,97,0.00,,,0.00,Wunderground v.1.15,2013-04-13 14:08:00,
2013-04-13 10:12:00,33.8,33.0,29.85,NNW,340,0.0,1.0,97,0.00,,,0.00,Wunderground v.1.15,2013-04-13 14:12:00,
2013-04-13 10:13:00,33.8,33.0,29.85,NW,307,0.0,3.0,97,0.00,,,0.00,Wunderground v.1.15,2013-04-13 14:13:00,
2013-04-13 10:17:00,33.8,33.0,29.85,NW,307,0.0,3.0,97,0.00,,,0.00,Wunderground v.1.15,2013-04-13 14:17:00,
2013-04-13 10:19:00,33.8,33.0,29.85,NW,307,0.0,3.0,97,0.00,,,0.00,Wunderground v.1.15,2013-04-13 14:19:00,
2013-04-13 10:22:00,33.8,33.0,29.85,WSW,255,0.0,4.0,97,0.00,,,0.00,Wunderground v.1.15,2013-04-13 14:22:00,
2013-04-13 10:24:00,33.8,33.0,29.85,West,266,0.0,4.0,97,0.00,,,0.00,Wunderground v.1.15,2013-04-13 14:24:00,
2013-04-13 10:28:00,33.9,33.1,29.85,NW,316,3.0,4.0,97,0.00,,,0.00,Wunderground v.1.15,2013-04-13 14:28:00,
2013-04-13 10:29:00,33.8,33.0,29.85,NW,316,0.0,4.0,97,0.00,,,0.00,Wunderground v.1.15,2013-04-13 14:29:00,
2013-04-13 10:34:00,33.8,33.0,29.85,NW,316,0.0,1.0,97,0.00,,,0.00,Wunderground v.1.15,2013-04-13 14:34:00,
2013-04-13 10:39:00,33.8,33.0,29.86,NW,316,0.0,1.0,97,0.00,,,0.00,Wunderground v.1.15,2013-04-13 14:39:00,
2013-04-13 10:44:00,33.9,33.1,29.85,WSW,253,0.0,1.0,97,0.00,,,0.00,Wunderground v.1.15,2013-04-13 14:44:00,
2013-04-13 10:49:00,34.0,33.2,29.85,WSW,253,0.0,1.0,97,0.00,,,0.00,Wunderground v.1.15,2013-04-13 14:49:00,
2013-04-13 10:50:00,34.0,33.2,29.85,WSW,253,0.0,0.0,97,0.00,,,0.00,Wunderground v.1.15,2013-04-13 14:50:00,
2013-04-13 10:54:00,34.1,33.3,29.86,WSW,253,0.0,0.0,97,0.00,,,0.00,Wunderground v.1.15,2013-04-13 14:54:00,
2013-04-13 10:56:00,34.2,33.4,29.86,WSW,253,0.0,0.0,97,0.00,,,0.00,Wunderground v.1.15,2013-04-13 14:56:00,
2013-04-13 11:00:00,34.4,33.6,29.86,WSW,253,0.0,0.0,97,0.00,,,0.00,Wunderground v.1.15,2013-04-13 15:00:00,
2013-04-13 11:03:00,34.5,33.7,29.86,WSW,253,0.0,0.0,97,0.00,,,0.00,Wunderground v.1.15,2013-04-13 15:03:00,
2013-04-13 11:05:00,34.5,33.7,29.86,WSW,253,0.0,0.0,97,0.00,,,0.00,Wunderground v.1.15,2013-04-13 15:05:00,
2013-04-13 11:08:00,34.5,33.7,29.86,WSW,253,0.0,0.0,97,0.00,,,0.00,Wunderground v.1.15,2013-04-13 15:08:00,
2013-04-13 11:10:00,34.6,33.8,29.86,WSW,253,0.0,0.0,97,0.00,,,0.00,Wunderground v.1.15,2013-04-13 15:10:00,
2013-04-13 11:13:00,34.5,33.7,29.86,WSW,253,0.0,0.0,97,0.00,,,0.00,Wunderground v.1.15,2013-04-13 15:13:00,
2013-04-13 11:15:00,34.4,33.6,29.86,WSW,253,0.0,2.0,97,0.00,,,0.00,Wunderground v.1.15,2013-04-13 15:15:00,
2013-04-13 11:18:00,34.4,33.6,29.87,WSW,253,1.0,2.0,97,0.00,,,0.00,Wunderground v.1.15,2013-04-13 15:18:00,
2013-04-13 11:21:00,34.4,33.6,29.87,WSW,253,0.0,0.0,97,0.00,,,0.00,Wunderground v.1.15,2013-04-13 15:21:00,
2013-04-13 11:24:00,34.4,33.6,29.86,WSW,253,0.0,0.0,97,0.00,,,0.00,Wunderground v.1.15,2013-04-13 15:24:00,
2013-04-13 11:26:00,34.4,33.6,29.86,WSW,253,0.0,1.0,97,0.00,,,0.00,Wunderground v.1.15,2013-04-13 15:26:00,
2013-04-13 11:30:00,34.4,33.6,29.87,WSW,253,0.0,1.0,97,0.00,,,0.00,Wunderground v.1.15,2013-04-13 15:30:00,
2013-04-13 11:32:00,34.4,33.6,29.87,WSW,253,0.0,0.0,97,0.00,,,0.00,Wunderground v.1.15,2013-04-13 15:32:00,
2013-04-13 11:35:00,34.5,33.7,29.87,WSW,253,0.0,0.0,97,0.00,,,0.00,Wunderground v.1.15,2013-04-13 15:35:00,
2013-04-13 11:37:00,34.6,33.8,29.87,WSW,253,0.0,1.0,97,0.00,,,0.00,Wunderground v.1.15,2013-04-13 15:37:00,
2013-04-13 11:40:00,34.6,33.8,29.86,WSW,253,0.0,0.0,97,0.00,,,0.00,Wunderground v.1.15,2013-04-13 15:40:00,
2013-04-13 11:42:00,34.8,34.0,29.86,WSW,253,0.0,0.0,97,0.00,,,0.00,Wunderground v.1.15,2013-04-13 15:42:00,
2013-04-13 11:45:00,35.1,34.3,29.86,WSW,253,0.0,0.0,97,0.00,,,0.00,Wunderground v.1.15,2013-04-13 15:45:00,
2013-04-13 11:47:00,35.3,34.8,29.86,WSW,253,0.0,0.0,98,0.00,,,0.00,Wunderground v.1.15,2013-04-13 15:47:00,
2013-04-13 11:50:00,35.5,34.7,29.86,WSW,253,1.0,2.0,97,0.00,,,0.00,Wunderground v.1.15,2013-04-13 15:50:00,
2013-04-13 11:53:00,35.5,34.7,29.86,WSW,253,0.0,2.0,97,0.00,,,0.00,Wunderground v.1.15,2013-04-13 15:53:00,
2013-04-13 11:55:00,35.6,34.8,29.86,WSW,253,0.0,2.0,97,0.00,,,0.00,Wunderground v.1.15,2013-04-13 15:55:00,
2013-04-13 11:58:00,35.9,35.1,29.86,WSW,253,0.0,2.0,97,0.00,,,0.00,Wunderground v.1.15,2013-04-13 15:58:00,
2013-04-13 12:00:00,36.1,35.3,29.86,WSW,253,0.0,0.0,97,0.00,,,0.00,Wunderground v.1.15,2013-04-13 16:00:00,
2013-04-13 12:04:00,36.3,35.5,29.86,WSW,253,0.0,1.0,97,0.00,,,0.00,Wunderground v.1.15,2013-04-13 16:04:00,
2013-04-13 12:05:00,36.5,35.7,29.86,WSW,253,0.0,1.0,97,0.00,,,0.00,Wunderground v.1.15,2013-04-13 16:05:00,
2013-04-13 12:09:00,36.8,36.0,29.86,WSW,253,0.0,1.0,97,0.00,,,0.00,Wunderground v.1.15,2013-04-13 16:09:00,
2013-04-13 12:10:00,36.9,36.1,29.86,WSW,253,1.0,1.0,97,0.00,,,0.00,Wunderground v.1.15,2013-04-13 16:10:00,
2013-04-13 12:14:00,37.1,36.3,29.86,WSW,253,0.0,1.0,97,0.00,,,0.00,Wunderground v.1.15,2013-04-13 16:14:00,
2013-04-13 12:15:00,37.2,36.4,29.86,WSW,253,0.0,2.0,97,0.00,,,0.00,Wunderground v.1.15,2013-04-13 16:15:00,
2013-04-13 12:19:00,37.4,36.6,29.86,WSW,253,0.0,2.0,97,0.00,,,0.00,Wunderground v.1.15,2013-04-13 16:19:00,
2013-04-13 12:20:00,37.4,36.4,29.86,WSW,253,0.0,1.0,96,0.00,,,0.00,Wunderground v.1.15,2013-04-13 16:20:00,
2013-04-13 12:24:00,37.6,36.6,29.86,WNW,294,0.0,3.0,96,0.00,,,0.01,Wunderground v.1.15,2013-04-13 16:24:00,
2013-04-13 12:26:00,37.9,36.9,29.86,West,275,0.0,3.0,96,0.00,,,0.01,Wunderground v.1.15,2013-04-13 16:26:00,
2013-04-13 12:29:00,38.1,37.1,29.86,SSW,192,5.0,5.0,96,0.00,,,0.01,Wunderground v.1.15,2013-04-13 16:29:00,
2013-04-13 12:32:00,38.2,36.6,29.85,WSW,250,1.0,4.0,94,0.00,,,0.01,Wunderground v.1.15,2013-04-13 16:32:00,
2013-04-13 12:34:00,38.4,36.8,29.86,SW,218,1.0,4.0,94,0.00,,,0.01,Wunderground v.1.15,2013-04-13 16:34:00,
2013-04-13 12:37:00,38.8,36.4,29.86,West,277,1.0,5.0,91,0.00,,,0.01,Wunderground v.1.15,2013-04-13 16:37:00,
2013-04-13 12:39:00,38.9,36.5,29.86,SSW,210,3.0,7.0,91,0.00,,,0.01,Wunderground v.1.15,2013-04-13 16:39:00,
2013-04-13 12:43:00,39.0,36.0,29.86,WSW,256,0.0,6.0,89,0.00,,,0.01,Wunderground v.1.15,2013-04-13 16:43:00,
2013-04-13 12:45:00,39.2,36.5,29.86,WSW,256,0.0,6.0,90,0.00,,,0.01,Wunderground v.1.15,2013-04-13 16:45:00,
2013-04-13 12:48:00,39.7,37.0,29.86,WSW,244,2.0,6.0,90,0.00,,,0.01,Wunderground v.1.15,2013-04-13 16:48:00,
2013-04-13 12:50:00,39.8,37.1,29.85,SSW,194,2.0,2.0,90,0.00,,,0.01,Wunderground v.1.15,2013-04-13 16:50:00,
2013-04-13 12:53:00,39.8,36.2,29.85,SSW,206,1.0,8.0,87,0.00,,,0.01,Wunderground v.1.15,2013-04-13 16:53:00,
2013-04-13 12:55:00,39.9,36.6,29.85,West,263,1.0,8.0,88,0.00,,,0.01,Wunderground v.1.15,2013-04-13 16:55:00,
2013-04-13 12:59:00,40.1,36.2,29.85,SSW,201,2.0,8.0,86,0.00,,,0.01,Wunderground v.1.15,2013-04-13 16:59:00,
2013-04-13 13:01:00,40.1,36.0,29.85,NW,314,2.0,2.0,85,0.00,,,0.01,Wunderground v.1.15,2013-04-13 17:01:00,
2013-04-13 13:04:00,40.0,36.2,29.85,NW,322,2.0,5.0,86,0.00,,,0.02,Wunderground v.1.15,2013-04-13 17:04:00,
2013-04-13 13:06:00,40.0,36.4,29.85,SSW,195,2.0,5.0,87,0.00,,,0.02,Wunderground v.1.15,2013-04-13 17:06:00,
2013-04-13 13:09:00,40.0,36.4,29.85,West,273,2.0,5.0,87,0.00,,,0.02,Wunderground v.1.15,2013-04-13 17:09:00,
2013-04-13 13:12:00,40.0,36.4,29.84,SSW,198,2.0,3.0,87,0.00,,,0.02,Wunderground v.1.15,2013-04-13 17:12:00,
2013-04-13 13:14:00,40.0,36.2,29.84,South,175,0.0,5.0,86,0.00,,,0.02,Wunderground v.1.15,2013-04-13 17:14:00,
2013-04-13 13:19:00,40.3,35.8,29.84,WSW,252,0.0,5.0,84,0.00,,,0.02,Wunderground v.1.15,2013-04-13 17:19:00,
2013-04-13 13:20:00,40.3,35.8,29.84,SW,232,1.0,1.0,84,0.00,,,0.02,Wunderground v.1.15,2013-04-13 17:20:00,
2013-04-13 13:24:00,40.6,36.4,29.84,WNW,290,1.0,4.0,85,0.00,,,0.02,Wunderground v.1.15,2013-04-13 17:24:00,
2013-04-13 13:25:00,40.6,36.4,29.84,WNW,290,0.0,4.0,85,0.00,,,0.02,Wunderground v.1.15,2013-04-13 17:25:00,
2013-04-13 13:30:00,41.4,36.3,29.84,SW,221,7.0,8.0,82,0.00,,,0.03,Wunderground v.1.15,2013-04-13 17:30:00,
2013-04-13 13:35:00,42.0,36.0,29.84,WSW,256,0.0,9.0,79,0.00,,,0.03,Wunderground v.1.15,2013-04-13 17:35:00,
2013-04-13 13:36:00,42.0,36.0,29.84,WSW,256,2.0,9.0,79,0.00,,,0.03,Wunderground v.1.15,2013-04-13 17:36:00,
2013-04-13 13:40:00,42.1,36.1,29.84,SW,227,2.0,3.0,79,0.00,,,0.03,Wunderground v.1.15,2013-04-13 17:40:00,
2013-04-13 13:41:00,42.1,36.1,29.84,SW,221,2.0,4.0,79,0.00,,,0.03,Wunderground v.1.15,2013-04-13 17:41:00,
2013-04-13 13:45:00,42.4,36.0,29.83,SW,227,5.0,13.0,78,0.00,,,0.03,Wunderground v.1.15,2013-04-13 17:45:00,
2013-04-13 13:46:00,42.3,35.9,29.83,SW,217,5.0,13.0,78,0.00,,,0.03,Wunderground v.1.15,2013-04-13 17:46:00,
2013-04-13 13:50:00,42.5,35.5,29.84,WNW,288,6.0,7.0,76,0.00,,,0.03,Wunderground v.1.15,2013-04-13 17:50:00,
2013-04-13 13:52:00,42.5,35.1,29.84,WSW,239,4.0,7.0,75,0.00,,,0.04,Wunderground v.1.15,2013-04-13 17:52:00,
2013-04-13 13:56:00,42.4,35.4,29.83,West,275,4.0,7.0,76,0.00,,,0.04,Wunderground v.1.15,2013-04-13 17:56:00,
2013-04-13 13:58:00,42.5,35.5,29.83,South,176,4.0,7.0,76,0.00,,,0.04,Wunderground v.1.15,2013-04-13 17:58:00,
2013-04-13 14:02:00,42.6,35.2,29.83,WSW,253,4.0,5.0,75,0.00,,,0.04,Wunderground v.1.15,2013-04-13 18:02:00,
2013-04-13 14:03:00,42.8,35.4,29.84,West,274,6.0,6.0,75,0.00,,,0.04,Wunderground v.1.15,2013-04-13 18:03:00,
2013-04-13 14:07:00,43.1,35.0,29.84,West,269,3.0,6.0,73,0.00,,,0.04,Wunderground v.1.15,2013-04-13 18:07:00,
2013-04-13 14:09:00,43.3,35.6,29.84,WSW,251,5.0,6.0,74,0.04,,,0.05,Wunderground v.1.15,2013-04-13 18:09:00,
2013-04-13 14:12:00,43.1,34.3,29.84,NW,306,2.0,6.0,71,0.04,,,0.05,Wunderground v.1.15,2013-04-13 18:12:00,
2013-04-13 14:14:00,43.0,34.9,29.84,WNW,290,3.0,6.0,73,0.04,,,0.05,Wunderground v.1.15,2013-04-13 18:14:00,
2013-04-13 14:17:00,43.1,35.0,29.84,WSW,242,3.0,6.0,73,0.04,,,0.05,Wunderground v.1.15,2013-04-13 18:17:00,
2013-04-13 14:19:00,43.0,34.9,29.84,WSW,237,3.0,7.0,73,0.04,,,0.05,Wunderground v.1.15,2013-04-13 18:19:00,
2013-04-13 14:22:00,43.2,34.8,29.84,WSW,245,1.0,7.0,72,0.04,,,0.05,Wunderground v.1.15,2013-04-13 18:22:00,
2013-04-13 14:24:00,43.2,34.8,29.84,WSW,250,4.0,7.0,72,0.04,,,0.06,Wunderground v.1.15,2013-04-13 18:24:00,
2013-04-13 14:27:00,43.3,34.2,29.84,WNW,293,6.0,7.0,70,0.04,,,0.06,Wunderground v.1.15,2013-04-13 18:27:00,
2013-04-13 14:32:00,43.9,33.6,29.83,West,272,5.0,6.0,67,0.04,,,0.06,Wunderground v.1.15,2013-04-13 18:32:00,
2013-04-13 14:33:00,43.9,33.6,29.83,WNW,282,2.0,6.0,67,0.06,,,0.07,Wunderground v.1.15,2013-04-13 18:33:00,
2013-04-13 14:38:00,43.8,33.9,29.83,WSW,244,4.0,6.0,68,0.06,,,0.07,Wunderground v.1.15,2013-04-13 18:38:00,
2013-04-13 14:39:00,43.7,33.8,29.83,WNW,287,1.0,7.0,68,0.06,,,0.07,Wunderground v.1.15,2013-04-13 18:39:00,
2013-04-13 14:43:00,44.2,35.0,29.83,West,271,2.0,3.0,70,0.06,,,0.07,Wunderground v.1.15,2013-04-13 18:43:00,
2013-04-13 14:44:00,44.3,34.4,29.83,NW,309,1.0,6.0,68,0.06,,,0.08,Wunderground v.1.15,2013-04-13 18:44:00,
2013-04-13 14:48:00,44.9,35.0,29.83,West,269,5.0,6.0,68,0.06,,,0.08,Wunderground v.1.15,2013-04-13 18:48:00,
2013-04-13 14:49:00,44.8,34.5,29.83,West,271,3.0,9.0,67,0.10,,,0.09,Wunderground v.1.15,2013-04-13 18:49:00,
2013-04-13 14:53:00,44.7,34.4,29.83,WSW,249,7.0,8.0,67,0.10,,,0.09,Wunderground v.1.15,2013-04-13 18:53:00,
2013-04-13 14:54:00,44.7,34.4,29.83,WSW,240,0.0,8.0,67,0.10,,,0.09,Wunderground v.1.15,2013-04-13 18:54:00,
2013-04-13 14:57:00,44.3,34.4,29.83,WSW,242,5.0,8.0,68,0.08,,,0.10,Wunderground v.1.15,2013-04-13 18:57:00,
2013-04-13 14:58:00,44.2,34.3,29.83,SSW,211,5.0,8.0,68,0.08,,,0.10,Wunderground v.1.15,2013-04-13 18:58:00,
2013-04-13 14:59:00,44.1,34.2,29.83,WSW,258,3.0,8.0,68,0.08,,,0.10,Wunderground v.1.15,2013-04-13 18:59:00,
2013-04-13 15:02:00,43.7,34.2,29.83,SSW,201,5.0,11.0,69,0.12,,,0.11,Wunderground v.1.15,2013-04-13 19:02:00,
2013-04-13 15:03:00,43.6,33.7,29.82,SSW,212,6.0,11.0,68,0.12,,,0.11,Wunderground v.1.15,2013-04-13 19:03:00,
2013-04-13 15:04:00,43.6,34.1,29.82,WNW,292,8.0,11.0,69,0.12,,,0.11,Wunderground v.1.15,2013-04-13 19:04:00,
2013-04-13 15:08:00,42.9,33.8,29.83,West,260,2.0,11.0,70,0.10,,,0.11,Wunderground v.1.15,2013-04-13 19:08:00,
2013-04-13 15:09:00,42.7,33.9,29.83,WSW,252,3.0,11.0,71,0.09,,,0.12,Wunderground v.1.15,2013-04-13 19:09:00,
2013-04-13 15:10:00,42.5,34.1,29.83,WSW,240,6.0,11.0,72,0.09,,,0.12,Wunderground v.1.15,2013-04-13 19:10:00,
2013-04-13 15:13:00,42.2,33.8,29.83,SW,217,7.0,8.0,72,0.09,,,0.12,Wunderground v.1.15,2013-04-13 19:13:00,
2013-04-13 15:14:00,42.4,34.0,29.83,WSW,240,3.0,10.0,72,0.12,,,0.13,Wunderground v.1.15,2013-04-13 19:14:00,
2013-04-13 15:15:00,42.4,34.0,29.82,West,269,5.0,10.0,72,0.12,,,0.13,Wunderground v.1.15,2013-04-13 19:15:00,
2013-04-13 15:18:00,42.9,34.1,29.83,SW,235,6.0,10.0,71,0.12,,,0.13,Wunderground v.1.15,2013-04-13 19:18:00,
2013-04-13 15:19:00,42.9,34.5,29.83,West,268,4.0,10.0,72,0.11,,,0.13,Wunderground v.1.15,2013-04-13 19:19:00,
2013-04-13 15:20:00,42.9,34.5,29.83,West,263,0.0,10.0,72,0.09,,,0.13,Wunderground v.1.15,2013-04-13 19:20:00,
2013-04-13 15:22:00,43.2,34.8,29.83,West,277,3.0,4.0,72,0.09,,,0.14,Wunderground v.1.15,2013-04-13 19:22:00,
2013-04-13 15:23:00,43.3,34.9,29.82,West,277,2.0,4.0,72,0.09,,,0.14,Wunderground v.1.15,2013-04-13 19:23:00,
2013-04-13 15:24:00,43.3,34.9,29.82,SSW,212,5.0,6.0,72,0.09,,,0.14,Wunderground v.1.15,2013-04-13 19:24:00,
2013-04-13 15:25:00,43.3,34.9,29.82,West,273,6.0,7.0,72,0.13,,,0.15,Wunderground v.1.15,2013-04-13 19:25:00,
2013-04-13 15:27:00,43.4,35.3,29.82,SW,232,5.0,7.0,73,0.13,,,0.15,Wunderground v.1.15,2013-04-13 19:27:00,
2013-04-13 15:28:00,43.2,34.8,29.83,WSW,257,3.0,9.0,72,0.13,,,0.15,Wunderground v.1.15,2013-04-13 19:28:00,
2013-04-13 15:29:00,43.1,34.3,29.82,West,275,3.0,9.0,71,0.12,,,0.15,Wunderground v.1.15,2013-04-13 19:29:00,
2013-04-13 15:30:00,43.0,34.2,29.82,West,278,7.0,9.0,71,0.11,,,0.15,Wunderground v.1.15,2013-04-13 19:30:00,
2013-04-13 15:32:00,42.5,34.1,29.82,West,265,5.0,8.0,72,0.11,,,0.16,Wunderground v.1.15,2013-04-13 19:32:00,
2013-04-13 15:33:00,42.4,33.7,29.82,WSW,246,5.0,8.0,71,0.11,,,0.16,Wunderground v.1.15,2013-04-13 19:33:00,
2013-04-13 15:34:00,42.2,33.5,29.82,SW,234,2.0,8.0,71,0.11,,,0.16,Wunderground v.1.15,2013-04-13 19:34:00,
2013-04-13 15:35:00,42.2,33.5,29.82,West,271,4.0,8.0,71,0.11,,,0.16,Wunderground v.1.15,2013-04-13 19:35:00,
2013-04-13 15:37:00,42.0,33.6,29.83,North,360,4.0,8.0,72,0.12,,,0.17,Wunderground v.1.15,2013-04-13 19:37:00,
2013-04-13 15:38:00,42.0,33.6,29.83,WSW,245,5.0,8.0,72,0.12,,,0.17,Wunderground v.1.15,2013-04-13 19:38:00,
2013-04-13 15:39:00,41.9,33.9,29.83,SW,217,6.0,8.0,73,0.12,,,0.17,Wunderground v.1.15,2013-04-13 19:39:00,
2013-04-13 15:40:00,41.9,33.9,29.83,SSW,199,5.0,8.0,73,0.12,,,0.17,Wunderground v.1.15,2013-04-13 19:40:00,
2013-04-13 15:42:00,41.8,33.8,29.83,West,269,1.0,4.0,73,0.10,,,0.18,Wunderground v.1.15,2013-04-13 19:42:00,
2013-04-13 15:43:00,41.7,34.0,29.83,West,269,0.0,4.0,74,0.10,,,0.18,Wunderground v.1.15,2013-04-13 19:43:00,
2013-04-13 15:44:00,41.6,33.9,29.83,WSW,253,1.0,9.0,74,0.10,,,0.18,Wunderground v.1.15,2013-04-13 19:44:00,
2013-04-13 15:45:00,41.6,33.9,29.83,WSW,244,2.0,9.0,74,0.10,,,0.18,Wunderground v.1.15,2013-04-13 19:45:00,
2013-04-13 15:48:00,41.3,34.0,29.83,West,273,2.0,9.0,75,0.12,,,0.19,Wunderground v.1.15,2013-04-13 19:48:00,
2013-04-13 15:50:00,41.2,34.2,29.83,SW,228,0.0,9.0,76,0.12,,,0.19,Wunderground v.1.15,2013-04-13 19:50:00,
2013-04-13 15:53:00,40.9,34.2,29.83,SSW,205,3.0,5.0,77,0.11,,,0.20,Wunderground v.1.15,2013-04-13 19:53:00,
2013-04-13 15:54:00,40.9,34.2,29.83,SSW,194,2.0,5.0,77,0.11,,,0.20,Wunderground v.1.15,2013-04-13 19:54:00,
2013-04-13 15:55:00,40.8,34.1,29.83,SSW,194,0.0,5.0,77,0.11,,,0.20,Wunderground v.1.15,2013-04-13 19:55:00,
2013-04-13 15:59:00,40.7,34.4,29.83,WSW,246,1.0,5.0,78,0.10,,,0.21,Wunderground v.1.15,2013-04-13 19:59:00,
2013-04-13 16:00:00,40.6,34.3,29.83,WSW,246,0.0,2.0,78,0.10,,,0.21,Wunderground v.1.15,2013-04-13 20:00:00,
2013-04-13 16:04:00,40.4,34.4,29.83,West,261,0.0,3.0,79,0.10,,,0.22,Wunderground v.1.15,2013-04-13 20:04:00,
2013-04-13 16:05:00,40.3,34.6,29.83,West,261,0.0,3.0,80,0.10,,,0.22,Wunderground v.1.15,2013-04-13 20:05:00,
2013-04-13 16:07:00,40.2,34.5,29.83,West,261,0.0,3.0,80,0.10,,,0.22,Wunderground v.1.15,2013-04-13 20:07:00,
2013-04-13 16:09:00,40.1,34.4,29.83,WNW,302,0.0,3.0,80,0.10,,,0.22,Wunderground v.1.15,2013-04-13 20:09:00,
2013-04-13 16:10:00,40.1,34.7,29.83,WNW,298,2.0,3.0,81,0.10,,,0.23,Wunderground v.1.15,2013-04-13 20:10:00,
2013-04-13 16:12:00,40.0,34.6,29.83,WSW,244,0.0,4.0,81,0.10,,,0.23,Wunderground v.1.15,2013-04-13 20:12:00,
2013-04-13 16:15:00,39.9,34.5,29.83,NW,306,0.0,4.0,81,0.10,,,0.23,Wunderground v.1.15,2013-04-13 20:15:00,
2013-04-13 16:16:00,39.9,34.5,29.83,NW,306,0.0,4.0,81,0.09,,,0.23,Wunderground v.1.15,2013-04-13 20:16:00,
2013-04-13 16:17:00,39.8,34.4,29.83,NW,306,0.0,4.0,81,0.09,,,0.24,Wunderground v.1.15,2013-04-13 20:17:00,
2013-04-13 16:20:00,39.8,34.4,29.83,WSW,240,0.0,1.0,81,0.09,,,0.24,Wunderground v.1.15,2013-04-13 20:20:00,
2013-04-13 16:22:00,39.8,34.8,29.83,West,281,0.0,2.0,82,0.10,,,0.25,Wunderground v.1.15,2013-04-13 20:22:00,
2013-04-13 16:23:00,39.8,34.8,29.83,West,281,0.0,2.0,82,0.10,,,0.25,Wunderground v.1.15,2013-04-13 20:23:00,
2013-04-13 16:25:00,39.7,34.3,29.83,West,281,1.0,3.0,81,0.10,,,0.25,Wunderground v.1.15,2013-04-13 20:25:00,
2013-04-13 16:28:00,39.7,34.7,29.84,SW,225,3.0,5.0,82,0.10,,,0.25,Wunderground v.1.15,2013-04-13 20:28:00,
2013-04-13 16:30:00,39.7,34.7,29.84,West,259,2.0,2.0,82,0.09,,,0.26,Wunderground v.1.15,2013-04-13 20:30:00,
2013-04-13 16:31:00,39.7,34.7,29.84,West,259,2.0,2.0,82,0.09,,,0.26,Wunderground v.1.15,2013-04-13 20:31:00,
2013-04-13 16:33:00,39.6,34.6,29.84,West,259,0.0,2.0,82,0.09,,,0.26,Wunderground v.1.15,2013-04-13 20:33:00,
2013-04-13 16:36:00,39.6,34.6,29.84,WSW,242,3.0,3.0,82,0.10,,,0.27,Wunderground v.1.15,2013-04-13 20:36:00,
2013-04-13 16:38:00,39.6,34.6,29.84,WSW,254,0.0,3.0,82,0.10,,,0.27,Wunderground v.1.15,2013-04-13 20:38:00,
2013-04-13 16:39:00,39.6,34.6,29.84,WSW,254,0.0,3.0,82,0.10,,,0.27,Wunderground v.1.15,2013-04-13 20:39:00,
2013-04-13 16:41:00,39.5,34.5,29.84,WSW,254,0.0,3.0,82,0.10,,,0.27,Wunderground v.1.15,2013-04-13 20:41:00,
2013-04-13 16:42:00,39.5,34.5,29.84,WSW,254,0.0,3.0,82,0.09,,,0.28,Wunderground v.1.15,2013-04-13 20:42:00,
2013-04-13 16:43:00,39.5,34.5,29.84,WSW,254,0.0,3.0,82,0.09,,,0.28,Wunderground v.1.15,2013-04-13 20:43:00,
2013-04-13 16:44:00,39.5,34.5,29.84,WSW,254,0.0,3.0,82,0.09,,,0.28,Wunderground v.1.15,2013-04-13 20:44:00,
2013-04-13 16:46:00,39.5,34.5,29.84,WSW,254,2.0,4.0,82,0.09,,,0.28,Wunderground v.1.15,2013-04-13 20:46:00,
2013-04-13 16:47:00,39.5,34.5,29.84,WSW,254,0.0,4.0,82,0.09,,,0.28,Wunderground v.1.15,2013-04-13 20:47:00,
2013-04-13 16:48:00,39.5,34.5,29.84,WSW,254,0.0,4.0,82,0.09,,,0.29,Wunderground v.1.15,2013-04-13 20:48:00,
2013-04-13 16:50:00,39.5,34.5,29.85,WSW,254,0.0,1.0,82,0.09,,,0.29,Wunderground v.1.15,2013-04-13 20:50:00,
2013-04-13 16:51:00,39.5,34.8,29.85,WSW,254,2.0,2.0,83,0.09,,,0.29,Wunderground v.1.15,2013-04-13 20:51:00,
2013-04-13 16:53:00,39.5,34.5,29.85,WSW,254,0.0,2.0,82,0.09,,,0.29,Wunderground v.1.15,2013-04-13 20:53:00,
2013-04-13 16:55:00,39.4,34.7,29.85,WSW,254,0.0,2.0,83,0.08,,,0.29,Wunderground v.1.15,2013-04-13 20:55:00,
2013-04-13 16:57:00,39.3,34.6,29.85,WSW,254,0.0,2.0,83,0.08,,,0.30,Wunderground v.1.15,2013-04-13 20:57:00,
2013-04-13 16:58:00,39.3,34.6,29.85,WSW,254,0.0,2.0,83,0.08,,,0.30,Wunderground v.1.15,2013-04-13 20:58:00,
2013-04-13 16:59:00,39.3,34.6,29.85,WSW,254,0.0,2.0,83,0.08,,,0.30,Wunderground v.1.15,2013-04-13 20:59:00,
2013-04-13 17:00:00,39.3,34.6,29.85,West,267,2.0,6.0,83,0.08,,,0.30,Wunderground v.1.15,2013-04-13 21:00:00,
2013-04-13 17:02:00,39.3,34.6,29.85,West,269,1.0,6.0,83,0.10,,,0.31,Wunderground v.1.15,2013-04-13 21:02:00,
2013-04-13 17:03:00,39.4,34.7,29.85,West,269,0.0,6.0,83,0.10,,,0.31,Wunderground v.1.15,2013-04-13 21:03:00,
2013-04-13 17:04:00,39.4,34.7,29.85,WSW,255,1.0,6.0,83,0.10,,,0.31,Wunderground v.1.15,2013-04-13 21:04:00,
2013-04-13 17:06:00,39.5,34.5,29.85,WSW,256,0.0,6.0,82,0.10,,,0.31,Wunderground v.1.15,2013-04-13 21:06:00,
2013-04-13 17:07:00,39.6,34.6,29.85,WSW,256,0.0,6.0,82,0.10,,,0.31,Wunderground v.1.15,2013-04-13 21:07:00,
2013-04-13 17:08:00,39.7,34.7,29.85,WSW,256,1.0,6.0,82,0.08,,,0.31,Wunderground v.1.15,2013-04-13 21:08:00,
2013-04-13 17:09:00,39.7,34.7,29.85,WSW,256,1.0,6.0,82,0.08,,,0.31,Wunderground v.1.15,2013-04-13 21:09:00,
2013-04-13 17:11:00,39.9,34.9,29.85,WSW,254,0.0,2.0,82,0.08,,,0.32,Wunderground v.1.15,2013-04-13 21:11:00,
2013-04-13 17:12:00,39.9,34.9,29.85,SW,227,0.0,2.0,82,0.08,,,0.32,Wunderground v.1.15,2013-04-13 21:12:00,
2013-04-13 17:13:00,40.0,34.9,29.85,SW,227,0.0,2.0,82,0.08,,,0.32,Wunderground v.1.15,2013-04-13 21:13:00,
2013-04-13 17:14:00,40.0,34.9,29.85,SW,227,0.0,2.0,82,0.08,,,0.32,Wunderground v.1.15,2013-04-13 21:14:00,
2013-04-13 17:17:00,40.0,34.9,29.85,WNW,302,0.0,4.0,82,0.09,,,0.33,Wunderground v.1.15,2013-04-13 21:17:00,
2013-04-13 17:19:00,39.9,34.9,29.85,West,269,0.0,4.0,82,0.09,,,0.33,Wunderground v.1.15,2013-04-13 21:19:00,
2013-04-13 17:20:00,40.0,34.9,29.85,WNW,293,0.0,4.0,82,0.09,,,0.33,Wunderground v.1.15,2013-04-13 21:20:00,
2013-04-13 17:22:00,40.0,34.9,29.85,WNW,286,0.0,1.0,82,0.09,,,0.33,Wunderground v.1.15,2013-04-13 21:22:00,
2013-04-13 17:23:00,39.9,34.9,29.86,WSW,257,0.0,1.0,82,0.09,,,0.34,Wunderground v.1.15,2013-04-13 21:23:00,
2013-04-13 17:25:00,39.9,34.9,29.86,WSW,257,0.0,1.0,82,0.09,,,0.34,Wunderground v.1.15,2013-04-13 21:25:00,
2013-04-13 17:28:00,39.9,34.9,29.86,WSW,257,2.0,2.0,82,0.09,,,0.34,Wunderground v.1.15,2013-04-13 21:28:00,
2013-04-13 17:30:00,39.9,34.9,29.86,WSW,257,0.0,0.0,82,0.09,,,0.35,Wunderground v.1.15,2013-04-13 21:30:00,
2013-04-13 17:33:00,39.8,34.8,29.86,WSW,257,0.0,1.0,82,0.09,,,0.35,Wunderground v.1.15,2013-04-13 21:33:00,
2013-04-13 17:35:00,39.7,34.7,29.86,WSW,239,0.0,4.0,82,0.09,,,0.35,Wunderground v.1.15,2013-04-13 21:35:00,
2013-04-13 17:38:00,39.7,35.0,29.87,West,270,4.0,4.0,83,0.08,,,0.36,Wunderground v.1.15,2013-04-13 21:38:00,
2013-04-13 17:40:00,39.6,34.9,29.87,WSW,252,0.0,4.0,83,0.08,,,0.36,Wunderground v.1.15,2013-04-13 21:40:00,
2013-04-13 17:41:00,39.6,34.9,29.87,WSW,248,3.0,5.0,83,0.08,,,0.36,Wunderground v.1.15,2013-04-13 21:41:00,
2013-04-13 17:43:00,39.6,34.9,29.87,WSW,248,0.0,5.0,83,0.08,,,0.36,Wunderground v.1.15,2013-04-13 21:43:00,
2013-04-13 17:45:00,39.6,34.9,29.87,WSW,248,0.0,5.0,83,0.08,,,0.37,Wunderground v.1.15,2013-04-13 21:45:00,
2013-04-13 17:47:00,39.6,34.9,29.87,WNW,293,0.0,5.0,83,0.08,,,0.37,Wunderground v.1.15,2013-04-13 21:47:00,
2013-04-13 17:48:00,39.6,34.9,29.87,WNW,293,0.0,5.0,83,0.08,,,0.37,Wunderground v.1.15,2013-04-13 21:48:00,
2013-04-13 17:49:00,39.6,35.2,29.87,WNW,293,0.0,5.0,84,0.08,,,0.37,Wunderground v.1.15,2013-04-13 21:49:00,
2013-04-13 17:51:00,39.6,35.2,29.87,WNW,293,0.0,0.0,84,0.08,,,0.37,Wunderground v.1.15,2013-04-13 21:51:00,
2013-04-13 17:52:00,39.5,34.8,29.87,WNW,293,0.0,1.0,83,0.08,,,0.38,Wunderground v.1.15,2013-04-13 21:52:00,
2013-04-13 17:53:00,39.5,35.1,29.87,WNW,293,1.0,1.0,84,0.08,,,0.38,Wunderground v.1.15,2013-04-13 21:53:00,
2013-04-13 17:55:00,39.5,34.8,29.87,WNW,293,0.0,1.0,83,0.08,,,0.38,Wunderground v.1.15,2013-04-13 21:55:00,
2013-04-13 17:57:00,39.5,34.8,29.87,West,273,3.0,4.0,83,0.08,,,0.38,Wunderground v.1.15,2013-04-13 21:57:00,
2013-04-13 17:58:00,39.5,34.8,29.87,West,275,0.0,4.0,83,0.08,,,0.39,Wunderground v.1.15,2013-04-13 21:58:00,
2013-04-13 18:00:00,39.5,34.8,29.87,West,269,0.0,0.0,83,0.08,,,0.39,Wunderground v.1.15,2013-04-13 22:00:00,
2013-04-13 18:02:00,39.5,34.8,29.87,West,275,0.0,3.0,83,0.08,,,0.39,Wunderground v.1.15,2013-04-13 22:02:00,
2013-04-13 18:04:00,39.5,34.8,29.87,West,267,2.0,3.0,83,0.08,,,0.39,Wunderground v.1.15,2013-04-13 22:04:00,
2013-04-13 18:05:00,39.5,34.8,29.87,West,267,0.0,3.0,83,0.08,,,0.39,Wunderground v.1.15,2013-04-13 22:05:00,
2013-04-13 18:07:00,39.5,34.8,29.87,West,267,0.0,3.0,83,0.07,,,0.40,Wunderground v.1.15,2013-04-13 22:07:00,
2013-04-13 18:09:00,39.5,34.5,29.87,West,278,3.0,4.0,82,0.07,,,0.40,Wunderground v.1.15,2013-04-13 22:09:00,
2013-04-13 18:10:00,39.6,34.6,29.88,WSW,254,1.0,1.0,82,0.07,,,0.40,Wunderground v.1.15,2013-04-13 22:10:00,
2013-04-13 18:12:00,39.6,34.6,29.88,WSW,256,1.0,2.0,82,0.07,,,0.40,Wunderground v.1.15,2013-04-13 22:12:00,
2013-04-13 18:14:00,39.5,34.8,29.88,WSW,253,0.0,2.0,83,0.08,,,0.41,Wunderground v.1.15,2013-04-13 22:14:00,
2013-04-13 18:15:00,39.5,34.8,29.88,WSW,241,1.0,4.0,83,0.08,,,0.41,Wunderground v.1.15,2013-04-13 22:15:00,
2013-04-13 18:18:00,39.3,34.3,29.88,West,279,6.0,6.0,82,0.08,,,0.41,Wunderground v.1.15,2013-04-13 22:18:00,
2013-04-13 18:19:00,39.4,34.1,29.88,WSW,246,2.0,10.0,81,0.08,,,0.41,Wunderground v.1.15,2013-04-13 22:19:00,
2013-04-13 18:20:00,39.4,34.1,29.88,SSE,168,4.0,4.0,81,0.08,,,0.41,Wunderground v.1.15,2013-04-13 22:20:00,
2013-04-13 18:23:00,39.4,34.1,29.88,SW,236,0.0,4.0,81,0.07,,,0.42,Wunderground v.1.15,2013-04-13 22:23:00,
2013-04-13 18:25:00,39.3,34.3,29.88,West,277,3.0,4.0,82,0.07,,,0.42,Wunderground v.1.15,2013-04-13 22:25:00,
2013-04-13 18:26:00,39.3,34.3,29.88,West,277,0.0,4.0,82,0.07,,,0.42,Wunderground v.1.15,2013-04-13 22:26:00,
2013-04-13 18:28:00,39.2,34.2,29.87,South,178,0.0,4.0,82,0.07,,,0.42,Wunderground v.1.15,2013-04-13 22:28:00,
2013-04-13 18:30:00,39.2,34.5,29.87,South,178,1.0,4.0,83,0.08,,,0.43,Wunderground v.1.15,2013-04-13 22:30:00,
2013-04-13 18:32:00,39.2,34.5,29.87,WSW,245,0.0,2.0,83,0.08,,,0.43,Wunderground v.1.15,2013-04-13 22:32:00,
2013-04-13 18:33:00,39.1,34.7,29.88,WSW,245,0.0,2.0,84,0.08,,,0.43,Wunderground v.1.15,2013-04-13 22:33:00,
2013-04-13 18:34:00,39.1,34.7,29.87,WSW,245,0.0,2.0,84,0.08,,,0.43,Wunderground v.1.15,2013-04-13 22:34:00,
2013-04-13 18:35:00,39.1,34.7,29.88,WSW,245,0.0,2.0,84,0.08,,,0.43,Wunderground v.1.15,2013-04-13 22:35:00,
2013-04-13 18:37:00,39.0,34.9,29.88,WSW,245,0.0,2.0,85,0.08,,,0.43,Wunderground v.1.15,2013-04-13 22:37:00,
2013-04-13 18:38:00,38.9,34.8,29.88,WSW,249,2.0,2.0,85,0.07,,,0.44,Wunderground v.1.15,2013-04-13 22:38:00,
2013-04-13 18:39:00,38.9,35.1,29.88,WSW,249,0.0,2.0,86,0.07,,,0.44,Wunderground v.1.15,2013-04-13 22:39:00,
2013-04-13 18:40:00,38.8,35.0,29.88,South,188,1.0,1.0,86,0.07,,,0.44,Wunderground v.1.15,2013-04-13 22:40:00,
2013-04-13 18:42:00,38.7,35.2,29.88,SW,226,1.0,2.0,87,0.07,,,0.44,Wunderground v.1.15,2013-04-13 22:42:00,
2013-04-13 18:44:00,38.6,35.1,29.88,WSW,246,0.0,3.0,87,0.07,,,0.44,Wunderground v.1.15,2013-04-13 22:44:00,
2013-04-13 18:45:00,38.5,35.3,29.88,WSW,246,0.0,3.0,88,0.07,,,0.44,Wunderground v.1.15,2013-04-13 22:45:00,
2013-04-13 18:48:00,38.3,35.1,29.88,SSW,205,0.0,3.0,88,0.08,,,0.45,Wunderground v.1.15,2013-04-13 22:48:00,
2013-04-13 18:49:00,38.3,35.3,29.88,SSW,205,0.0,3.0,89,0.08,,,0.45,Wunderground v.1.15,2013-04-13 22:49:00,
2013-04-13 18:50:00,38.2,35.2,29.88,SSW,205,0.0,0.0,89,0.08,,,0.45,Wunderground v.1.15,2013-04-13 22:50:00,
2013-04-13 18:54:00,38.0,35.0,29.88,WNW,289,2.0,3.0,89,0.07,,,0.45,Wunderground v.1.15,2013-04-13 22:54:00,
2013-04-13 18:55:00,38.0,35.0,29.89,WNW,289,0.0,3.0,89,0.07,,,0.46,Wunderground v.1.15,2013-04-13 22:55:00,
2013-04-13 18:56:00,38.0,35.0,29.89,WNW,289,0.0,3.0,89,0.07,,,0.46,Wunderground v.1.15,2013-04-13 22:56:00,
2013-04-13 18:59:00,37.9,35.2,29.89,WNW,287,0.0,3.0,90,0.07,,,0.46,Wunderground v.1.15,2013-04-13 22:59:00,
2013-04-13 19:00:00,37.8,35.1,29.89,WNW,287,0.0,3.0,90,0.07,,,0.46,Wunderground v.1.15,2013-04-13 23:00:00,
2013-04-13 19:02:00,37.7,35.0,29.89,WNW,287,0.0,0.0,90,0.08,,,0.47,Wunderground v.1.15,2013-04-13 23:02:00,
2013-04-13 19:04:00,37.7,35.0,29.89,WNW,287,0.0,0.0,90,0.08,,,0.47,Wunderground v.1.15,2013-04-13 23:04:00,
2013-04-13 19:05:00,37.7,35.0,29.89,WNW,287,0.0,0.0,90,0.08,,,0.47,Wunderground v.1.15,2013-04-13 23:05:00,
2013-04-13 19:08:00,37.6,35.2,29.89,WNW,287,0.0,1.0,91,0.08,,,0.47,Wunderground v.1.15,2013-04-13 23:08:00,
2013-04-13 19:09:00,37.6,35.2,29.89,WNW,287,0.0,1.0,91,0.08,,,0.47,Wunderground v.1.15,2013-04-13 23:09:00,
2013-04-13 19:11:00,37.6,35.2,29.89,WNW,287,0.0,0.0,91,0.07,,,0.47,Wunderground v.1.15,2013-04-13 23:11:00,
2013-04-13 19:13:00,37.5,35.1,29.89,WNW,287,0.0,0.0,91,0.07,,,0.48,Wunderground v.1.15,2013-04-13 23:13:00,
2013-04-13 19:15:00,37.5,35.1,29.89,WNW,287,0.0,1.0,91,0.07,,,0.48,Wunderground v.1.15,2013-04-13 23:15:00,
2013-04-13 19:16:00,37.5,35.1,29.89,WNW,287,0.0,1.0,91,0.07,,,0.48,Wunderground v.1.15,2013-04-13 23:16:00,
2013-04-13 19:17:00,37.5,35.1,29.89,WNW,287,0.0,1.0,91,0.07,,,0.48,Wunderground v.1.15,2013-04-13 23:17:00,
2013-04-13 19:18:00,37.5,35.1,29.89,WNW,287,0.0,1.0,91,0.07,,,0.48,Wunderground v.1.15,2013-04-13 23:18:00,
2013-04-13 19:20:00,37.5,35.1,29.89,WNW,287,0.0,1.0,91,0.07,,,0.49,Wunderground v.1.15,2013-04-13 23:20:00,
2013-04-13 19:21:00,37.5,35.1,29.89,WNW,287,0.0,0.0,91,0.07,,,0.49,Wunderground v.1.15,2013-04-13 23:21:00,
2013-04-13 19:22:00,37.5,35.1,29.89,WNW,287,0.0,0.0,91,0.07,,,0.49,Wunderground v.1.15,2013-04-13 23:22:00,
2013-04-13 19:23:00,37.5,35.1,29.89,WNW,287,0.0,0.0,91,0.07,,,0.49,Wunderground v.1.15,2013-04-13 23:23:00,
2013-04-13 19:25:00,37.4,35.0,29.89,WNW,287,0.0,0.0,91,0.07,,,0.49,Wunderground v.1.15,2013-04-13 23:25:00,
2013-04-13 19:27:00,37.4,35.0,29.89,WNW,287,0.0,0.0,91,0.07,,,0.49,Wunderground v.1.15,2013-04-13 23:27:00,
2013-04-13 19:29:00,37.4,35.0,29.89,WNW,287,0.0,3.0,91,0.07,,,0.50,Wunderground v.1.15,2013-04-13 23:29:00,
2013-04-13 19:30:00,37.4,35.0,29.89,WNW,287,0.0,0.0,91,0.07,,,0.50,Wunderground v.1.15,2013-04-13 23:30:00,
2013-04-13 19:33:00,37.3,34.9,29.89,WNW,287,0.0,0.0,91,0.07,,,0.50,Wunderground v.1.15,2013-04-13 23:33:00,
2013-04-13 19:34:00,37.3,34.9,29.89,WNW,287,1.0,3.0,91,0.07,,,0.50,Wunderground v.1.15,2013-04-13 23:34:00,
2013-04-13 19:36:00,37.2,34.8,29.89,WNW,287,0.0,3.0,91,0.07,,,0.50,Wunderground v.1.15,2013-04-13 23:36:00,
2013-04-13 19:38:00,37.2,35.1,29.89,WNW,287,0.0,3.0,92,0.07,,,0.51,Wunderground v.1.15,2013-04-13 23:38:00,
2013-04-13 19:39:00,37.1,35.0,29.89,WNW,287,0.0,3.0,92,0.07,,,0.51,Wunderground v.1.15,2013-04-13 23:39:00,
2013-04-13 19:41:00,37.1,35.0,29.89,WNW,287,0.0,0.0,92,0.07,,,0.51,Wunderground v.1.15,2013-04-13 23:41:00,
2013-04-13 19:43:00,37.0,34.9,29.89,WNW,287,0.0,1.0,92,0.07,,,0.51,Wunderground v.1.15,2013-04-13 23:43:00,
2013-04-13 19:44:00,37.0,34.9,29.89,WNW,287,0.0,1.0,92,0.07,,,0.51,Wunderground v.1.15,2013-04-13 23:44:00,
2013-04-13 19:47:00,37.0,34.9,29.90,WNW,287,0.0,1.0,92,0.06,,,0.52,Wunderground v.1.15,2013-04-13 23:47:00,
2013-04-13 19:48:00,36.9,34.8,29.90,WNW,287,0.0,1.0,92,0.06,,,0.52,Wunderground v.1.15,2013-04-13 23:48:00,
2013-04-13 19:49:00,36.9,34.8,29.90,WNW,287,0.0,1.0,92,0.06,,,0.52,Wunderground v.1.15,2013-04-13 23:49:00,
2013-04-13 19:53:00,36.9,35.1,29.90,WNW,287,0.0,0.0,93,0.06,,,0.52,Wunderground v.1.15,2013-04-13 23:53:00,
2013-04-13 19:54:00,36.9,35.1,29.90,WNW,287,0.0,0.0,93,0.07,,,0.53,Wunderground v.1.15,2013-04-13 23:54:00,
2013-04-13 19:58:00,36.8,35.0,29.90,WNW,287,0.0,0.0,93,0.07,,,0.53,Wunderground v.1.15,2013-04-13 23:58:00,
2013-04-13 20:00:00,36.8,35.0,29.90,WNW,287,0.0,0.0,93,0.07,,,0.53,Wunderground v.1.15,2013-04-14 00:00:00,
2013-04-13 20:03:00,36.8,35.0,29.90,WNW,287,0.0,0.0,93,0.07,,,0.53,Wunderground v.1.15,2013-04-14 00:03:00,
2013-04-13 20:05:00,36.8,35.0,29.90,WNW,287,0.0,0.0,93,0.06,,,0.54,Wunderground v.1.15,2013-04-14 00:05:00,
2013-04-13 20:08:00,36.8,35.0,29.90,WNW,287,0.0,0.0,93,0.06,,,0.54,Wunderground v.1.15,2013-04-14 00:08:00,
2013-04-13 20:09:00,36.8,35.0,29.90,WNW,287,0.0,0.0,93,0.06,,,0.54,Wunderground v.1.15,2013-04-14 00:09:00,
2013-04-13 20:10:00,36.7,34.9,29.90,WNW,287,0.0,0.0,93,0.06,,,0.54,Wunderground v.1.15,2013-04-14 00:10:00,
2013-04-13 20:14:00,36.8,35.2,29.90,WNW,287,0.0,0.0,94,0.07,,,0.55,Wunderground v.1.15,2013-04-14 00:14:00,
2013-04-13 20:15:00,36.8,35.2,29.90,WNW,287,0.0,0.0,94,0.07,,,0.55,Wunderground v.1.15,2013-04-14 00:15:00,
2013-04-13 20:19:00,36.9,35.3,29.90,WNW,287,0.0,0.0,94,0.07,,,0.55,Wunderground v.1.15,2013-04-14 00:19:00,
2013-04-13 20:20:00,36.9,35.3,29.90,WNW,287,0.0,0.0,94,0.07,,,0.55,Wunderground v.1.15,2013-04-14 00:20:00,
2013-04-13 20:25:00,37.0,35.2,29.90,WNW,287,0.0,0.0,93,0.06,,,0.56,Wunderground v.1.15,2013-04-14 00:25:00,
2013-04-13 20:30:00,37.1,35.3,29.90,South,169,2.0,2.0,93,0.06,,,0.56,Wunderground v.1.15,2013-04-14 00:30:00,
2013-04-13 20:32:00,37.2,35.4,29.90,SSW,193,0.0,4.0,93,0.06,,,0.56,Wunderground v.1.15,2013-04-14 00:32:00,
2013-04-13 20:35:00,37.3,35.5,29.90,SSW,199,0.0,4.0,93,0.07,,,0.57,Wunderground v.1.15,2013-04-14 00:35:00,
2013-04-13 20:37:00,37.3,35.5,29.90,SSW,199,0.0,4.0,93,0.07,,,0.57,Wunderground v.1.15,2013-04-14 00:37:00,
2013-04-13 20:40:00,37.4,35.3,29.90,SSW,199,0.0,0.0,92,0.07,,,0.57,Wunderground v.1.15,2013-04-14 00:40:00,
2013-04-13 20:42:00,37.4,35.3,29.90,SSW,199,0.0,0.0,92,0.06,,,0.57,Wunderground v.1.15,2013-04-14 00:42:00,
2013-04-13 20:45:00,37.5,35.4,29.91,SW,232,0.0,3.0,92,0.06,,,0.58,Wunderground v.1.15,2013-04-14 00:45:00,
2013-04-13 20:47:00,37.5,35.4,29.91,SW,232,0.0,3.0,92,0.06,,,0.58,Wunderground v.1.15,2013-04-14 00:47:00,
2013-04-13 20:51:00,37.5,35.4,29.91,SW,232,0.0,0.0,92,0.06,,,0.58,Wunderground v.1.15,2013-04-14 00:51:00,
2013-04-13 20:52:00,37.4,35.3,29.92,West,273,2.0,3.0,92,0.07,,,0.59,Wunderground v.1.15,2013-04-14 00:52:00,
2013-04-13 20:56:00,36.9,35.1,29.93,SW,215,5.0,7.0,93,0.07,,,0.59,Wunderground v.1.15,2013-04-14 00:56:00,
2013-04-13 20:57:00,36.5,34.7,29.92,West,271,3.0,7.0,93,0.07,,,0.59,Wunderground v.1.15,2013-04-14 00:57:00,
2013-04-13 21:01:00,35.6,34.0,29.93,West,267,5.0,6.0,94,0.06,,,0.59,Wunderground v.1.15,2013-04-14 01:01:00,
2013-04-13 21:02:00,35.2,33.6,29.93,WSW,251,6.0,9.0,94,0.06,,,0.60,Wunderground v.1.15,2013-04-14 01:02:00,
2013-04-13 21:03:00,35.2,33.6,29.93,West,259,4.0,10.0,94,0.06,,,0.60,Wunderground v.1.15,2013-04-14 01:03:00,
2013-04-13 21:07:00,34.7,33.4,29.93,NNW,327,0.0,12.0,95,0.06,,,0.60,Wunderground v.1.15,2013-04-14 01:07:00,
2013-04-13 21:08:00,34.6,33.3,29.93,NW,311,1.0,12.0,95,0.06,,,0.60,Wunderground v.1.15,2013-04-14 01:08:00,
2013-04-13 21:10:00,34.5,33.2,29.93,West,269,0.0,4.0,95,0.06,,,0.60,Wunderground v.1.15,2013-04-14 01:10:00,
2013-04-13 21:12:00,34.4,33.1,29.93,West,260,0.0,4.0,95,0.06,,,0.61,Wunderground v.1.15,2013-04-14 01:12:00,
2013-04-13 21:13:00,34.4,33.1,29.93,West,260,0.0,4.0,95,0.06,,,0.61,Wunderground v.1.15,2013-04-14 01:13:00,
2013-04-13 21:14:00,34.4,33.1,29.93,West,260,2.0,4.0,95,0.06,,,0.61,Wunderground v.1.15,2013-04-14 01:14:00,
2013-04-13 21:15:00,34.4,33.1,29.93,West,260,0.0,4.0,95,0.06,,,0.61,Wunderground v.1.15,2013-04-14 01:15:00,
2013-04-13 21:17:00,34.3,33.3,29.93,West,260,0.0,4.0,96,0.06,,,0.61,Wunderground v.1.15,2013-04-14 01:17:00,
2013-04-13 21:18:00,34.3,33.3,29.92,West,260,0.0,4.0,96,0.06,,,0.61,Wunderground v.1.15,2013-04-14 01:18:00,
2013-04-13 21:19:00,34.3,33.3,29.92,West,260,0.0,4.0,96,0.06,,,0.61,Wunderground v.1.15,2013-04-14 01:19:00,
2013-04-13 21:20:00,34.3,33.3,29.93,WNW,300,1.0,1.0,96,0.06,,,0.61,Wunderground v.1.15,2013-04-14 01:20:00,
2013-04-13 21:22:00,34.3,33.3,29.93,West,273,2.0,3.0,96,0.06,,,0.62,Wunderground v.1.15,2013-04-14 01:22:00,
2013-04-13 21:23:00,34.3,33.3,29.93,West,273,0.0,3.0,96,0.06,,,0.62,Wunderground v.1.15,2013-04-14 01:23:00,
2013-04-13 21:24:00,34.3,33.3,29.93,NNW,328,2.0,4.0,96,0.06,,,0.62,Wunderground v.1.15,2013-04-14 01:24:00,
2013-04-13 21:26:00,34.3,33.3,29.93,NW,319,0.0,4.0,96,0.06,,,0.62,Wunderground v.1.15,2013-04-14 01:26:00,
2013-04-13 21:27:00,34.3,33.3,29.93,WSW,248,3.0,4.0,96,0.06,,,0.62,Wunderground v.1.15,2013-04-14 01:27:00,
2013-04-13 21:29:00,34.3,33.3,29.93,West,261,2.0,4.0,96,0.06,,,0.62,Wunderground v.1.15,2013-04-14 01:29:00,
2013-04-13 21:33:00,34.3,33.3,29.93,WSW,240,3.0,4.0,96,0.06,,,0.63,Wunderground v.1.15,2013-04-14 01:33:00,
2013-04-13 21:34:00,34.3,33.3,29.93,West,277,0.0,4.0,96,0.06,,,0.63,Wunderground v.1.15,2013-04-14 01:34:00,
2013-04-13 21:35:00,34.3,33.3,29.93,West,277,0.0,4.0,96,0.06,,,0.63,Wunderground v.1.15,2013-04-14 01:35:00,
2013-04-13 21:38:00,34.2,33.2,29.93,West,277,1.0,4.0,96,0.06,,,0.63,Wunderground v.1.15,2013-04-14 01:38:00,
2013-04-13 21:39:00,34.2,33.2,29.93,West,277,0.0,4.0,96,0.06,,,0.63,Wunderground v.1.15,2013-04-14 01:39:00,
2013-04-13 21:40:00,34.2,33.2,29.93,West,277,2.0,4.0,96,0.06,,,0.63,Wunderground v.1.15,2013-04-14 01:40:00,
2013-04-13 21:43:00,34.1,33.1,29.93,West,279,2.0,4.0,96,0.06,,,0.64,Wunderground v.1.15,2013-04-14 01:43:00,
2013-04-13 21:44:00,34.1,33.1,29.93,WSW,258,2.0,4.0,96,0.06,,,0.64,Wunderground v.1.15,2013-04-14 01:44:00,
2013-04-13 21:45:00,34.1,33.1,29.93,WSW,258,0.0,4.0,96,0.06,,,0.64,Wunderground v.1.15,2013-04-14 01:45:00,
2013-04-13 21:48:00,34.1,33.1,29.93,WSW,258,0.0,4.0,96,0.06,,,0.64,Wunderground v.1.15,2013-04-14 01:48:00,
2013-04-13 21:50:00,34.1,33.1,29.93,WSW,258,0.0,1.0,96,0.06,,,0.64,Wunderground v.1.15,2013-04-14 01:50:00,
2013-04-13 21:53:00,34.1,33.1,29.93,WSW,258,2.0,2.0,96,0.06,,,0.65,Wunderground v.1.15,2013-04-14 01:53:00,
2013-04-13 21:55:00,34.1,33.1,29.93,WSW,250,0.0,3.0,96,0.06,,,0.65,Wunderground v.1.15,2013-04-14 01:55:00,
2013-04-13 21:58:00,34.0,33.2,29.93,WSW,250,0.0,3.0,97,0.06,,,0.65,Wunderground v.1.15,2013-04-14 01:58:00,
2013-04-13 22:00:00,34.0,33.2,29.93,WSW,250,0.0,0.0,97,0.06,,,0.65,Wunderground v.1.15,2013-04-14 02:00:00,
2013-04-13 22:01:00,34.0,33.2,29.93,WSW,250,0.0,0.0,97,0.06,,,0.65,Wunderground v.1.15,2013-04-14 02:01:00,
2013-04-13 22:04:00,34.0,33.2,29.93,WSW,250,0.0,0.0,97,0.06,,,0.66,Wunderground v.1.15,2013-04-14 02:04:00,
2013-04-13 22:05:00,34.0,33.2,29.93,SW,236,0.0,2.0,97,0.06,,,0.66,Wunderground v.1.15,2013-04-14 02:05:00,
2013-04-13 22:06:00,34.0,33.2,29.93,SW,236,0.0,2.0,97,0.06,,,0.66,Wunderground v.1.15,2013-04-14 02:06:00,
2013-04-13 22:09:00,34.0,33.2,29.93,SW,236,3.0,3.0,97,0.06,,,0.66,Wunderground v.1.15,2013-04-14 02:09:00,
2013-04-13 22:10:00,34.0,33.2,29.93,SW,236,2.0,2.0,97,0.06,,,0.66,Wunderground v.1.15,2013-04-14 02:10:00,
2013-04-13 22:11:00,34.0,33.2,29.92,SW,236,1.0,3.0,97,0.06,,,0.66,Wunderground v.1.15,2013-04-14 02:11:00,
2013-04-13 22:14:00,33.9,33.1,29.93,West,261,3.0,4.0,97,0.06,,,0.67,Wunderground v.1.15,2013-04-14 02:14:00,
2013-04-13 22:15:00,33.9,33.1,29.93,West,261,3.0,4.0,97,0.06,,,0.67,Wunderground v.1.15,2013-04-14 02:15:00,
2013-04-13 22:16:00,33.9,33.1,29.93,West,261,3.0,4.0,97,0.06,,,0.67,Wunderground v.1.15,2013-04-14 02:16:00,
2013-04-13 22:19:00,33.9,33.1,29.93,WSW,248,2.0,5.0,97,0.06,,,0.67,Wunderground v.1.15,2013-04-14 02:19:00,
2013-04-13 22:20:00,33.8,33.0,29.93,WSW,246,3.0,4.0,97,0.06,,,0.67,Wunderground v.1.15,2013-04-14 02:20:00,
2013-04-13 22:22:00,33.9,33.1,29.93,WSW,246,2.0,4.0,97,0.06,,,0.67,Wunderground v.1.15,2013-04-14 02:22:00,
2013-04-13 22:25:00,33.8,33.0,29.92,WSW,246,2.0,4.0,97,0.05,,,0.68,Wunderground v.1.15,2013-04-14 02:25:00,
2013-04-13 22:26:00,33.8,33.0,29.92,SW,236,1.0,4.0,97,0.05,,,0.68,Wunderground v.1.15,2013-04-14 02:26:00,
2013-04-13 22:27:00,33.8,33.0,29.92,SW,236,2.0,4.0,97,0.05,,,0.68,Wunderground v.1.15,2013-04-14 02:27:00,
2013-04-13 22:30:00,33.7,32.9,29.92,WSW,250,2.0,2.0,97,0.05,,,0.68,Wunderground v.1.15,2013-04-14 02:30:00,
2013-04-13 22:31:00,33.7,32.9,29.92,WSW,250,2.0,3.0,97,0.05,,,0.68,Wunderground v.1.15,2013-04-14 02:31:00,
2013-04-13 22:32:00,33.7,32.9,29.92,WSW,250,1.0,3.0,97,0.05,,,0.68,Wunderground v.1.15,2013-04-14 02:32:00,
2013-04-13 22:33:00,33.7,32.9,29.92,WSW,250,2.0,3.0,97,0.05,,,0.68,Wunderground v.1.15,2013-04-14 02:33:00,
2013-04-13 22:35:00,33.7,32.9,29.92,WSW,252,1.0,3.0,97,0.05,,,0.69,Wunderground v.1.15,2013-04-14 02:35:00,
2013-04-13 22:36:00,33.7,32.9,29.92,WSW,252,0.0,3.0,97,0.05,,,0.69,Wunderground v.1.15,2013-04-14 02:36:00,
2013-04-13 22:37:00,33.6,32.8,29.92,WSW,252,1.0,3.0,97,0.05,,,0.69,Wunderground v.1.15,2013-04-14 02:37:00,
2013-04-13 22:38:00,33.7,32.9,29.92,WSW,252,1.0,3.0,97,0.05,,,0.69,Wunderground v.1.15,2013-04-14 02:38:00,
2013-04-13 22:40:00,33.6,32.8,29.92,WSW,252,2.0,2.0,97,0.05,,,0.69,Wunderground v.1.15,2013-04-14 02:40:00,
2013-04-13 22:42:00,33.6,32.8,29.92,WSW,247,2.0,2.0,97,0.05,,,0.69,Wunderground v.1.15,2013-04-14 02:42:00,
2013-04-13 22:43:00,33.6,32.8,29.92,WSW,247,0.0,2.0,97,0.05,,,0.69,Wunderground v.1.15,2013-04-14 02:43:00,
2013-04-13 22:45:00,33.6,32.8,29.92,WSW,247,3.0,3.0,97,0.05,,,0.69,Wunderground v.1.15,2013-04-14 02:45:00,
2013-04-13 22:47:00,33.6,32.8,29.92,WSW,247,2.0,3.0,97,0.05,,,0.70,Wunderground v.1.15,2013-04-14 02:47:00,
2013-04-13 22:48:00,33.5,32.7,29.92,WSW,247,0.0,3.0,97,0.05,,,0.70,Wunderground v.1.15,2013-04-14 02:48:00,
2013-04-13 22:49:00,33.5,32.7,29.92,WSW,247,0.0,3.0,97,0.05,,,0.70,Wunderground v.1.15,2013-04-14 02:49:00,
2013-04-13 22:50:00,33.5,32.7,29.92,WSW,247,0.0,1.0,97,0.05,,,0.70,Wunderground v.1.15,2013-04-14 02:50:00,
2013-04-13 22:53:00,33.5,32.7,29.92,WSW,247,0.0,2.0,97,0.05,,,0.70,Wunderground v.1.15,2013-04-14 02:53:00,
2013-04-13 22:54:00,33.5,32.7,29.92,WSW,247,0.0,2.0,97,0.05,,,0.70,Wunderground v.1.15,2013-04-14 02:54:00,
2013-04-13 22:55:00,33.5,32.7,29.92,WSW,247,0.0,2.0,97,0.05,,,0.70,Wunderground v.1.15,2013-04-14 02:55:00,
2013-04-13 22:58:00,33.5,32.7,29.92,WSW,247,0.0,2.0,97,0.05,,,0.70,Wunderground v.1.15,2013-04-14 02:58:00,
2013-04-13 22:59:00,33.4,32.6,29.92,WSW,247,0.0,2.0,97,0.05,,,0.71,Wunderground v.1.15,2013-04-14 02:59:00,
2013-04-13 23:00:00,33.5,32.7,29.92,WSW,247,0.0,1.0,97,0.05,,,0.71,Wunderground v.1.15,2013-04-14 03:00:00,
2013-04-13 23:03:00,33.5,32.7,29.92,WSW,247,0.0,1.0,97,0.05,,,0.71,Wunderground v.1.15,2013-04-14 03:03:00,
2013-04-13 23:04:00,33.5,32.7,29.92,WSW,247,0.0,1.0,97,0.05,,,0.71,Wunderground v.1.15,2013-04-14 03:04:00,
2013-04-13 23:06:00,33.4,32.6,29.92,WSW,247,0.0,1.0,97,0.05,,,0.71,Wunderground v.1.15,2013-04-14 03:06:00,
2013-04-13 23:08:00,33.4,32.6,29.92,WSW,247,0.0,1.0,97,0.05,,,0.71,Wunderground v.1.15,2013-04-14 03:08:00,
2013-04-13 23:09:00,33.4,32.6,29.92,WSW,247,0.0,1.0,97,0.05,,,0.71,Wunderground v.1.15,2013-04-14 03:09:00,
2013-04-13 23:12:00,33.4,32.6,29.92,WSW,247,0.0,0.0,97,0.05,,,0.72,Wunderground v.1.15,2013-04-14 03:12:00,
2013-04-13 23:13:00,33.4,32.6,29.92,WSW,247,0.0,0.0,97,0.05,,,0.72,Wunderground v.1.15,2013-04-14 03:13:00,
2013-04-13 23:14:00,33.4,32.6,29.92,WSW,247,0.0,0.0,97,0.05,,,0.72,Wunderground v.1.15,2013-04-14 03:14:00,
2013-04-13 23:17:00,33.4,32.6,29.92,WSW,247,0.0,0.0,97,0.05,,,0.72,Wunderground v.1.15,2013-04-14 03:17:00,
2013-04-13 23:18:00,33.4,32.6,29.91,WSW,247,0.0,1.0,97,0.05,,,0.72,Wunderground v.1.15,2013-04-14 03:18:00,
2013-04-13 23:19:00,33.4,32.6,29.92,WSW,247,0.0,1.0,97,0.05,,,0.72,Wunderground v.1.15,2013-04-14 03:19:00,
2013-04-13 23:22:00,33.4,32.6,29.92,WSW,247,0.0,0.0,97,0.05,,,0.72,Wunderground v.1.15,2013-04-14 03:22:00,
2013-04-13 23:23:00,33.4,32.6,29.92,WSW,247,0.0,0.0,97,0.05,,,0.73,Wunderground v.1.15,2013-04-14 03:23:00,
2013-04-13 23:24:00,33.4,32.6,29.92,WSW,247,0.0,0.0,97,0.05,,,0.73,Wunderground v.1.15,2013-04-14 03:24:00,
2013-04-13 23:25:00,33.4,32.6,29.92,WSW,247,0.0,0.0,97,0.05,,,0.73,Wunderground v.1.15,2013-04-14 03:25:00,
2013-04-13 23:28:00,33.4,32.6,29.92,WSW,247,1.0,1.0,97,0.05,,,0.73,Wunderground v.1.15,2013-04-14 03:28:00,
2013-04-13 23:29:00,33.4,32.6,29.92,WSW,247,0.0,1.0,97,0.05,,,0.73,Wunderground v.1.15,2013-04-14 03:29:00,
2013-04-13 23:30:00,33.4,32.6,29.92,WSW,247,0.0,0.0,97,0.05,,,0.73,Wunderground v.1.15,2013-04-14 03:30:00,
2013-04-13 23:33:00,33.4,32.6,29.92,WSW,247,0.0,0.0,97,0.05,,,0.73,Wunderground v.1.15,2013-04-14 03:33:00,
2013-04-13 23:34:00,33.4,32.6,29.92,WSW,247,0.0,0.0,97,0.05,,,0.73,Wunderground v.1.15,2013-04-14 03:34:00,
2013-04-13 23:35:00,33.4,32.6,29.92,SSW,195,1.0,4.0,97,0.05,,,0.73,Wunderground v.1.15,2013-04-14 03:35:00,
2013-04-13 23:38:00,33.4,32.6,29.92,SSW,195,0.0,4.0,97,0.04,,,0.74,Wunderground v.1.15,2013-04-14 03:38:00,
2013-04-13 23:39:00,33.5,32.7,29.92,SSW,195,0.0,4.0,97,0.04,,,0.74,Wunderground v.1.15,2013-04-14 03:39:00,
2013-04-13 23:40:00,33.4,32.6,29.92,SSW,195,0.0,0.0,97,0.04,,,0.74,Wunderground v.1.15,2013-04-14 03:40:00,
2013-04-13 23:44:00,33.5,32.7,29.92,SSW,195,0.0,0.0,97,0.04,,,0.74,Wunderground v.1.15,2013-04-14 03:44:00,
2013-04-13 23:46:00,33.5,32.7,29.92,SSW,195,0.0,0.0,97,0.04,,,0.74,Wunderground v.1.15,2013-04-14 03:46:00,
2013-04-13 23:49:00,33.5,32.7,29.92,SSW,195,0.0,0.0,97,0.04,,,0.74,Wunderground v.1.15,2013-04-14 03:49:00,
2013-04-13 23:50:00,33.5,32.7,29.92,SSW,195,0.0,0.0,97,0.04,,,0.74,Wunderground v.1.15,2013-04-14 03:50:00,
2013-04-13 23:52:00,33.4,32.6,29.92,ESE,103,1.0,2.0,97,0.04,,,0.75,Wunderground v.1.15,2013-04-14 03:52:00,
2013-04-13 23:54:00,33.4,32.4,29.92,ESE,103,0.0,2.0,96,0.04,,,0.75,Wunderground v.1.15,2013-04-14 03:54:00,
2013-04-13 23:55:00,33.3,32.3,29.92,ESE,103,0.0,2.0,96,0.04,,,0.75,Wunderground v.1.15,2013-04-14 03:55:00,
2013-04-13 23:56:00,33.3,32.3,29.92,ESE,103,1.0,2.0,96,0.04,,,0.75,Wunderground v.1.15,2013-04-14 03:56:00,
2013-04-13 23:59:00,33.3,32.3,29.92,ESE,103,0.0,4.0,96,0.04,,,0.75,Wunderground v.1.15,2013-04-14 03:59:00,